<?xml version='1.0' encoding='UTF-8'?><gpx version="1.1" creator="JPX - https://github.com/jenetics/jpx" xmlns="http://www.topografix.com/GPX/1/1"><trk><trkseg><trkpt lat="45.4244086" lon="7.6635219"><ele>689.0</ele><time>2026-04-04T14:01:38.185Z</time></trkpt><trkpt lat="45.4244491" lon="7.6636011"><ele>689.0</ele><time>2026-04-04T14:02:31.185Z</time></trkpt><trkpt lat="45.4245626" lon="7.6635825"><ele>689.0</ele><time>2026-04-04T14:02:34.186Z</time></trkpt><trkpt lat="45.4246901" lon="7.6635834"><ele>689.0</ele><time>2026-04-04T14:02:36.189Z</time></trkpt><trkpt lat="45.4248055" lon="7.6635918"><ele>689.0</ele><time>2026-04-04T14:02:38.185Z</time></trkpt><trkpt lat="45.4249156" lon="7.6635945"><ele>687.8571428571429</ele><time>2026-04-04T14:02:40.196Z</time></trkpt><trkpt lat="45.4250012" lon="7.6636398"><ele>686.7142857142858</ele><time>2026-04-04T14:02:42.203Z</time></trkpt><trkpt lat="45.4250391" lon="7.6637115"><ele>685.5714285714287</ele><time>2026-04-04T14:02:44.197Z</time></trkpt><trkpt lat="45.4250308" lon="7.6638212"><ele>684.4285714285714</ele><time>2026-04-04T14:02:46.219Z</time></trkpt><trkpt lat="45.4250354" lon="7.663915"><ele>683.2857142857143</ele><time>2026-04-04T14:02:48.194Z</time></trkpt><trkpt lat="45.4250642" lon="7.6639959"><ele>682.1428571428572</ele><time>2026-04-04T14:02:50.189Z</time></trkpt><trkpt lat="45.4251211" lon="7.6640421"><ele>681.0</ele><time>2026-04-04T14:02:52.195Z</time></trkpt><trkpt lat="45.4251889" lon="7.6640847"><ele>681.0</ele><time>2026-04-04T14:02:54.2Z</time></trkpt><trkpt lat="45.4252868" lon="7.6641139"><ele>681.0</ele><time>2026-04-04T14:02:56.266Z</time></trkpt><trkpt lat="45.4253574" lon="7.6641228"><ele>681.0</ele><time>2026-04-04T14:02:57.266Z</time></trkpt><trkpt lat="45.4255032" lon="7.6642006"><ele>681.0</ele><time>2026-04-04T14:03:00.193Z</time></trkpt><trkpt lat="45.4255862" lon="7.6642142"><ele>681.0</ele><time>2026-04-04T14:03:02.179Z</time></trkpt><trkpt lat="45.4256536" lon="7.6642538"><ele>683.8</ele><time>2026-04-04T14:03:04.194Z</time></trkpt><trkpt lat="45.4257497" lon="7.6642339"><ele>686.5999999999999</ele><time>2026-04-04T14:03:07.198Z</time></trkpt><trkpt lat="45.4258369" lon="7.6642206"><ele>689.4</ele><time>2026-04-04T14:03:14.198Z</time></trkpt><trkpt lat="45.4259007" lon="7.6642299"><ele>692.2</ele><time>2026-04-04T14:03:20.19Z</time></trkpt><trkpt lat="45.4259852" lon="7.6642856"><ele>695.0</ele><time>2026-04-04T14:03:36.197Z</time></trkpt><trkpt lat="45.4261022" lon="7.6642688"><ele>695.0</ele><time>2026-04-04T14:03:38.208Z</time></trkpt><trkpt lat="45.4261814" lon="7.6642686"><ele>695.0</ele><time>2026-04-04T14:03:40.105Z</time></trkpt><trkpt lat="45.4262686" lon="7.6642338"><ele>695.0</ele><time>2026-04-04T14:03:41.946Z</time></trkpt><trkpt lat="45.4263517" lon="7.6642223"><ele>695.0</ele><time>2026-04-04T14:03:43.946Z</time></trkpt><trkpt lat="45.4264393" lon="7.6642009"><ele>695.0</ele><time>2026-04-04T14:03:45.949Z</time></trkpt><trkpt lat="45.4265146" lon="7.6641914"><ele>695.0</ele><time>2026-04-04T14:03:47.955Z</time></trkpt><trkpt lat="45.4265855" lon="7.6642041"><ele>696.1428571428572</ele><time>2026-04-04T14:03:53.962Z</time></trkpt><trkpt lat="45.4265915" lon="7.6643035"><ele>697.2857142857143</ele><time>2026-04-04T14:03:58.947Z</time></trkpt><trkpt lat="45.4266512" lon="7.6643607"><ele>698.4285714285714</ele><time>2026-04-04T14:04:01.957Z</time></trkpt><trkpt lat="45.4267092" lon="7.6644253"><ele>699.5714285714287</ele><time>2026-04-04T14:04:03.956Z</time></trkpt><trkpt lat="45.4267813" lon="7.6644676"><ele>700.7142857142858</ele><time>2026-04-04T14:04:06.02Z</time></trkpt><trkpt lat="45.4268558" lon="7.6644912"><ele>701.8571428571429</ele><time>2026-04-04T14:04:07.951Z</time></trkpt><trkpt lat="45.426926" lon="7.6644988"><ele>703.0</ele><time>2026-04-04T14:04:09.939Z</time></trkpt><trkpt lat="45.4269891" lon="7.6644904"><ele>704.5</ele><time>2026-04-04T14:04:11.957Z</time></trkpt><trkpt lat="45.4270689" lon="7.6644821"><ele>706.0</ele><time>2026-04-04T14:04:15.954Z</time></trkpt><trkpt lat="45.4271422" lon="7.6644592"><ele>707.5</ele><time>2026-04-04T14:04:18.952Z</time></trkpt><trkpt lat="45.4272124" lon="7.6644485"><ele>709.0</ele><time>2026-04-04T14:04:21.957Z</time></trkpt><trkpt lat="45.4273066" lon="7.6644462"><ele>710.5</ele><time>2026-04-04T14:04:30.956Z</time></trkpt><trkpt lat="45.4273471" lon="7.6643667"><ele>712.0</ele><time>2026-04-04T14:04:50.947Z</time></trkpt><trkpt lat="45.4274061" lon="7.664332"><ele>712.4285714285713</ele><time>2026-04-04T14:05:38.956Z</time></trkpt><trkpt lat="45.4274736" lon="7.6643363"><ele>712.8571428571429</ele><time>2026-04-04T14:06:21.946Z</time></trkpt><trkpt lat="45.4274096" lon="7.6643537"><ele>713.2857142857142</ele><time>2026-04-04T14:06:28.946Z</time></trkpt><trkpt lat="45.4273443" lon="7.664334"><ele>713.7142857142857</ele><time>2026-04-04T14:07:15.888Z</time></trkpt><trkpt lat="45.4274058" lon="7.6643082"><ele>714.1428571428571</ele><time>2026-04-04T14:07:18.962Z</time></trkpt><trkpt lat="45.4274713" lon="7.6642661"><ele>714.5714285714286</ele><time>2026-04-04T14:07:21.94Z</time></trkpt><trkpt lat="45.4275283" lon="7.664213"><ele>715.0</ele><time>2026-04-04T14:07:23.938Z</time></trkpt><trkpt lat="45.4275773" lon="7.66412"><ele>715.0</ele><time>2026-04-04T14:07:25.949Z</time></trkpt><trkpt lat="45.4276466" lon="7.6640497"><ele>715.0</ele><time>2026-04-04T14:07:27.959Z</time></trkpt><trkpt lat="45.4277318" lon="7.6640681"><ele>715.0</ele><time>2026-04-04T14:07:29.946Z</time></trkpt><trkpt lat="45.4278511" lon="7.6640549"><ele>715.0</ele><time>2026-04-04T14:07:31.956Z</time></trkpt><trkpt lat="45.4279194" lon="7.6640774"><ele>715.0</ele><time>2026-04-04T14:07:32.954Z</time></trkpt><trkpt lat="45.4279871" lon="7.6641235"><ele>715.0</ele><time>2026-04-04T14:07:33.951Z</time></trkpt><trkpt lat="45.4280471" lon="7.6641665"><ele>718.0</ele><time>2026-04-04T14:07:34.954Z</time></trkpt><trkpt lat="45.4281454" lon="7.6642442"><ele>721.0</ele><time>2026-04-04T14:07:36.943Z</time></trkpt><trkpt lat="45.4282401" lon="7.6643001"><ele>724.0</ele><time>2026-04-04T14:07:38.949Z</time></trkpt><trkpt lat="45.4283228" lon="7.6643367"><ele>727.0</ele><time>2026-04-04T14:07:40.942Z</time></trkpt><trkpt lat="45.4283792" lon="7.6643894"><ele>730.0</ele><time>2026-04-04T14:07:41.946Z</time></trkpt><trkpt lat="45.4284388" lon="7.6644403"><ele>733.0</ele><time>2026-04-04T14:07:42.953Z</time></trkpt><trkpt lat="45.4285266" lon="7.664533"><ele>733.1428571428571</ele><time>2026-04-04T14:07:44.939Z</time></trkpt><trkpt lat="45.4285847" lon="7.6645864"><ele>733.2857142857142</ele><time>2026-04-04T14:07:46.95Z</time></trkpt><trkpt lat="45.4286492" lon="7.6646205"><ele>733.4285714285713</ele><time>2026-04-04T14:07:48.947Z</time></trkpt><trkpt lat="45.4287163" lon="7.6646117"><ele>733.5714285714286</ele><time>2026-04-04T14:08:00.952Z</time></trkpt><trkpt lat="45.4287786" lon="7.6645981"><ele>733.7142857142858</ele><time>2026-04-04T14:08:07.95Z</time></trkpt><trkpt lat="45.4288253" lon="7.6646616"><ele>733.8571428571428</ele><time>2026-04-04T14:08:11.955Z</time></trkpt><trkpt lat="45.4288862" lon="7.6647186"><ele>734.0</ele><time>2026-04-04T14:08:14.944Z</time></trkpt><trkpt lat="45.4289467" lon="7.6647503"><ele>736.0</ele><time>2026-04-04T14:08:17.961Z</time></trkpt><trkpt lat="45.4290122" lon="7.6647806"><ele>738.0</ele><time>2026-04-04T14:08:19.958Z</time></trkpt><trkpt lat="45.4290865" lon="7.664806"><ele>740.0</ele><time>2026-04-04T14:08:22.96Z</time></trkpt><trkpt lat="45.4291504" lon="7.6648357"><ele>742.0</ele><time>2026-04-04T14:08:24.953Z</time></trkpt><trkpt lat="45.4292155" lon="7.6648925"><ele>744.0</ele><time>2026-04-04T14:08:26.959Z</time></trkpt><trkpt lat="45.4293071" lon="7.6649506"><ele>746.0</ele><time>2026-04-04T14:08:29.955Z</time></trkpt><trkpt lat="45.4293864" lon="7.6649876"><ele>746.0</ele><time>2026-04-04T14:08:31.954Z</time></trkpt><trkpt lat="45.4294572" lon="7.6650179"><ele>746.0</ele><time>2026-04-04T14:08:33.958Z</time></trkpt><trkpt lat="45.4295279" lon="7.6650733"><ele>746.0</ele><time>2026-04-04T14:08:35.952Z</time></trkpt><trkpt lat="45.4296069" lon="7.6651152"><ele>746.0</ele><time>2026-04-04T14:08:37.954Z</time></trkpt><trkpt lat="45.4296735" lon="7.6651204"><ele>746.0</ele><time>2026-04-04T14:08:40.953Z</time></trkpt><trkpt lat="45.4297338" lon="7.665164"><ele>746.0</ele><time>2026-04-04T14:09:21.952Z</time></trkpt><trkpt lat="45.4298047" lon="7.6651596"><ele>746.0</ele><time>2026-04-04T14:09:33.955Z</time></trkpt><trkpt lat="45.4298672" lon="7.6651283"><ele>748.3333333333333</ele><time>2026-04-04T14:09:38.957Z</time></trkpt><trkpt lat="45.4299352" lon="7.6650591"><ele>750.6666666666666</ele><time>2026-04-04T14:09:41.958Z</time></trkpt><trkpt lat="45.4299996" lon="7.6649876"><ele>753.0</ele><time>2026-04-04T14:09:44.952Z</time></trkpt><trkpt lat="45.4300814" lon="7.6649949"><ele>755.3333333333334</ele><time>2026-04-04T14:09:46.948Z</time></trkpt><trkpt lat="45.4301804" lon="7.6650236"><ele>757.6666666666667</ele><time>2026-04-04T14:09:48.952Z</time></trkpt><trkpt lat="45.4302554" lon="7.6650572"><ele>760.0</ele><time>2026-04-04T14:09:50.955Z</time></trkpt><trkpt lat="45.4303245" lon="7.6650764"><ele>760.0</ele><time>2026-04-04T14:09:53.951Z</time></trkpt><trkpt lat="45.4302459" lon="7.6649436"><ele>760.0</ele><time>2026-04-04T14:10:06.951Z</time></trkpt><trkpt lat="45.4302154" lon="7.6648611"><ele>760.0</ele><time>2026-04-04T14:10:07.949Z</time></trkpt><trkpt lat="45.4301989" lon="7.6646735"><ele>760.0</ele><time>2026-04-04T14:10:09.954Z</time></trkpt><trkpt lat="45.4302261" lon="7.6645595"><ele>760.0</ele><time>2026-04-04T14:10:10.952Z</time></trkpt><trkpt lat="45.4302658" lon="7.6644172"><ele>762.4</ele><time>2026-04-04T14:10:11.947Z</time></trkpt><trkpt lat="45.4303094" lon="7.6642489"><ele>764.8</ele><time>2026-04-04T14:10:12.948Z</time></trkpt><trkpt lat="45.4303545" lon="7.6641077"><ele>767.2</ele><time>2026-04-04T14:10:13.95Z</time></trkpt><trkpt lat="45.4303837" lon="7.6640073"><ele>769.6</ele><time>2026-04-04T14:10:14.953Z</time></trkpt><trkpt lat="45.4304149" lon="7.6638575"><ele>772.0</ele><time>2026-04-04T14:10:16.95Z</time></trkpt><trkpt lat="45.430444" lon="7.6637591"><ele>774.8333333333333</ele><time>2026-04-04T14:10:18.948Z</time></trkpt><trkpt lat="45.4305192" lon="7.6637167"><ele>777.6666666666666</ele><time>2026-04-04T14:10:20.941Z</time></trkpt><trkpt lat="45.4306124" lon="7.6637706"><ele>780.5</ele><time>2026-04-04T14:10:23.954Z</time></trkpt><trkpt lat="45.4306662" lon="7.6638432"><ele>783.3333333333333</ele><time>2026-04-04T14:10:24.962Z</time></trkpt><trkpt lat="45.4307186" lon="7.6639171"><ele>786.1666666666666</ele><time>2026-04-04T14:10:25.944Z</time></trkpt><trkpt lat="45.4307541" lon="7.6640021"><ele>789.0</ele><time>2026-04-04T14:10:26.953Z</time></trkpt><trkpt lat="45.4307999" lon="7.6641033"><ele>789.0</ele><time>2026-04-04T14:10:27.952Z</time></trkpt><trkpt lat="45.4308313" lon="7.6642352"><ele>789.0</ele><time>2026-04-04T14:10:28.951Z</time></trkpt><trkpt lat="45.4308671" lon="7.6643624"><ele>789.0</ele><time>2026-04-04T14:10:29.953Z</time></trkpt><trkpt lat="45.4309175" lon="7.6644717"><ele>789.0</ele><time>2026-04-04T14:10:30.954Z</time></trkpt><trkpt lat="45.4309747" lon="7.6645318"><ele>789.0</ele><time>2026-04-04T14:10:31.958Z</time></trkpt><trkpt lat="45.4310327" lon="7.6645948"><ele>789.0</ele><time>2026-04-04T14:10:33.953Z</time></trkpt><trkpt lat="45.4310841" lon="7.6645045"><ele>789.0</ele><time>2026-04-04T14:10:36.957Z</time></trkpt><trkpt lat="45.4310946" lon="7.6644054"><ele>789.0</ele><time>2026-04-04T14:10:38.958Z</time></trkpt><trkpt lat="45.4310916" lon="7.6643155"><ele>789.0</ele><time>2026-04-04T14:10:39.947Z</time></trkpt><trkpt lat="45.4310716" lon="7.664153"><ele>789.0</ele><time>2026-04-04T14:10:40.954Z</time></trkpt><trkpt lat="45.4310584" lon="7.6639889"><ele>789.0</ele><time>2026-04-04T14:10:41.955Z</time></trkpt><trkpt lat="45.4310302" lon="7.6638326"><ele>789.0</ele><time>2026-04-04T14:10:42.954Z</time></trkpt><trkpt lat="45.4310067" lon="7.6636819"><ele>789.0</ele><time>2026-04-04T14:10:43.951Z</time></trkpt><trkpt lat="45.430991" lon="7.6635333"><ele>789.0</ele><time>2026-04-04T14:10:44.954Z</time></trkpt><trkpt lat="45.4309876" lon="7.6633777"><ele>789.0</ele><time>2026-04-04T14:10:45.952Z</time></trkpt><trkpt lat="45.4309744" lon="7.6631968"><ele>790.0</ele><time>2026-04-04T14:10:46.948Z</time></trkpt><trkpt lat="45.4309646" lon="7.6630306"><ele>791.0</ele><time>2026-04-04T14:10:47.953Z</time></trkpt><trkpt lat="45.4309597" lon="7.6628751"><ele>792.0</ele><time>2026-04-04T14:10:48.949Z</time></trkpt><trkpt lat="45.4309512" lon="7.6627422"><ele>793.0</ele><time>2026-04-04T14:10:49.952Z</time></trkpt><trkpt lat="45.4309317" lon="7.6626254"><ele>794.0</ele><time>2026-04-04T14:10:50.949Z</time></trkpt><trkpt lat="45.4309001" lon="7.6625327"><ele>795.6666666666667</ele><time>2026-04-04T14:10:51.951Z</time></trkpt><trkpt lat="45.4308513" lon="7.6624368"><ele>797.3333333333334</ele><time>2026-04-04T14:10:52.955Z</time></trkpt><trkpt lat="45.4307989" lon="7.6623558"><ele>799.0</ele><time>2026-04-04T14:10:53.955Z</time></trkpt><trkpt lat="45.4307337" lon="7.6622783"><ele>800.6666666666667</ele><time>2026-04-04T14:10:54.956Z</time></trkpt><trkpt lat="45.4306588" lon="7.6622168"><ele>802.3333333333334</ele><time>2026-04-04T14:10:55.95Z</time></trkpt><trkpt lat="45.4305918" lon="7.6621562"><ele>804.0</ele><time>2026-04-04T14:10:56.951Z</time></trkpt><trkpt lat="45.4305378" lon="7.6621013"><ele>801.6</ele><time>2026-04-04T14:10:57.954Z</time></trkpt><trkpt lat="45.4304259" lon="7.6620394"><ele>799.2</ele><time>2026-04-04T14:10:59.955Z</time></trkpt><trkpt lat="45.430336" lon="7.6619793"><ele>796.8000000000001</ele><time>2026-04-04T14:11:01.951Z</time></trkpt><trkpt lat="45.4302903" lon="7.661882"><ele>794.4000000000001</ele><time>2026-04-04T14:11:03.959Z</time></trkpt><trkpt lat="45.4302828" lon="7.6617381"><ele>792.0</ele><time>2026-04-04T14:11:05.95Z</time></trkpt><trkpt lat="45.4303063" lon="7.6616547"><ele>791.7142857142858</ele><time>2026-04-04T14:11:06.961Z</time></trkpt><trkpt lat="45.4303264" lon="7.6615677"><ele>791.4285714285713</ele><time>2026-04-04T14:11:07.957Z</time></trkpt><trkpt lat="45.4303484" lon="7.6614799"><ele>791.1428571428571</ele><time>2026-04-04T14:11:08.954Z</time></trkpt><trkpt lat="45.4303688" lon="7.6613847"><ele>790.8571428571429</ele><time>2026-04-04T14:11:09.952Z</time></trkpt><trkpt lat="45.4303894" lon="7.661295"><ele>790.5714285714287</ele><time>2026-04-04T14:11:10.958Z</time></trkpt><trkpt lat="45.4304081" lon="7.6612037"><ele>790.2857142857142</ele><time>2026-04-04T14:11:11.958Z</time></trkpt><trkpt lat="45.4304186" lon="7.6611055"><ele>790.0</ele><time>2026-04-04T14:11:12.957Z</time></trkpt><trkpt lat="45.4304226" lon="7.6609901"><ele>789.8333333333333</ele><time>2026-04-04T14:11:13.957Z</time></trkpt><trkpt lat="45.4304302" lon="7.660879"><ele>789.6666666666666</ele><time>2026-04-04T14:11:14.952Z</time></trkpt><trkpt lat="45.4304392" lon="7.6607821"><ele>789.5</ele><time>2026-04-04T14:11:15.956Z</time></trkpt><trkpt lat="45.4304417" lon="7.6606339"><ele>789.3333333333333</ele><time>2026-04-04T14:11:17.952Z</time></trkpt><trkpt lat="45.4304457" lon="7.6605328"><ele>789.1666666666666</ele><time>2026-04-04T14:11:20.949Z</time></trkpt><trkpt lat="45.4304876" lon="7.6606636"><ele>789.0</ele><time>2026-04-04T14:11:25.946Z</time></trkpt><trkpt lat="45.4304725" lon="7.6607914"><ele>789.0</ele><time>2026-04-04T14:11:26.955Z</time></trkpt><trkpt lat="45.4304543" lon="7.6609261"><ele>789.0</ele><time>2026-04-04T14:11:27.95Z</time></trkpt><trkpt lat="45.4304322" lon="7.6610649"><ele>789.0</ele><time>2026-04-04T14:11:28.952Z</time></trkpt><trkpt lat="45.4303873" lon="7.6611944"><ele>789.0</ele><time>2026-04-04T14:11:29.96Z</time></trkpt><trkpt lat="45.4303502" lon="7.661309"><ele>789.0</ele><time>2026-04-04T14:11:30.955Z</time></trkpt><trkpt lat="45.4303136" lon="7.661415"><ele>789.1666666666666</ele><time>2026-04-04T14:11:31.952Z</time></trkpt><trkpt lat="45.4302814" lon="7.6615096"><ele>789.3333333333333</ele><time>2026-04-04T14:11:32.953Z</time></trkpt><trkpt lat="45.4302604" lon="7.661601"><ele>789.5</ele><time>2026-04-04T14:11:33.96Z</time></trkpt><trkpt lat="45.4302534" lon="7.6616924"><ele>789.6666666666666</ele><time>2026-04-04T14:11:34.952Z</time></trkpt><trkpt lat="45.4303163" lon="7.6618217"><ele>789.8333333333333</ele><time>2026-04-04T14:11:36.952Z</time></trkpt><trkpt lat="45.4304183" lon="7.6618878"><ele>790.0</ele><time>2026-04-04T14:11:38.95Z</time></trkpt><trkpt lat="45.4305277" lon="7.6619735"><ele>792.3333333333333</ele><time>2026-04-04T14:11:40.95Z</time></trkpt><trkpt lat="45.4305939" lon="7.6620314"><ele>794.6666666666666</ele><time>2026-04-04T14:11:41.958Z</time></trkpt><trkpt lat="45.4306587" lon="7.662095"><ele>797.0</ele><time>2026-04-04T14:11:42.955Z</time></trkpt><trkpt lat="45.4307175" lon="7.6621637"><ele>799.3333333333333</ele><time>2026-04-04T14:11:43.955Z</time></trkpt><trkpt lat="45.4307751" lon="7.6622271"><ele>801.6666666666666</ele><time>2026-04-04T14:11:44.961Z</time></trkpt><trkpt lat="45.430868" lon="7.6623524"><ele>804.0</ele><time>2026-04-04T14:11:46.953Z</time></trkpt><trkpt lat="45.4309096" lon="7.6624339"><ele>804.0</ele><time>2026-04-04T14:11:47.964Z</time></trkpt><trkpt lat="45.4309351" lon="7.6625396"><ele>804.0</ele><time>2026-04-04T14:11:48.952Z</time></trkpt><trkpt lat="45.430938" lon="7.6626836"><ele>804.0</ele><time>2026-04-04T14:11:49.955Z</time></trkpt><trkpt lat="45.4309353" lon="7.6628427"><ele>804.0</ele><time>2026-04-04T14:11:50.94Z</time></trkpt><trkpt lat="45.4309348" lon="7.6629965"><ele>804.0</ele><time>2026-04-04T14:11:51.953Z</time></trkpt><trkpt lat="45.4309416" lon="7.6631301"><ele>802.0</ele><time>2026-04-04T14:11:52.942Z</time></trkpt><trkpt lat="45.4309374" lon="7.6632712"><ele>800.0</ele><time>2026-04-04T14:11:53.953Z</time></trkpt><trkpt lat="45.4309422" lon="7.6634049"><ele>798.0</ele><time>2026-04-04T14:11:54.961Z</time></trkpt><trkpt lat="45.4309503" lon="7.6635372"><ele>796.0</ele><time>2026-04-04T14:11:55.953Z</time></trkpt><trkpt lat="45.43095" lon="7.6636678"><ele>794.0</ele><time>2026-04-04T14:11:56.948Z</time></trkpt><trkpt lat="45.4309622" lon="7.6637945"><ele>793.1666666666667</ele><time>2026-04-04T14:11:57.954Z</time></trkpt><trkpt lat="45.4309649" lon="7.663916"><ele>792.3333333333334</ele><time>2026-04-04T14:11:58.954Z</time></trkpt><trkpt lat="45.4309749" lon="7.6640318"><ele>791.5</ele><time>2026-04-04T14:11:59.958Z</time></trkpt><trkpt lat="45.4309903" lon="7.6641493"><ele>790.6666666666667</ele><time>2026-04-04T14:12:00.952Z</time></trkpt><trkpt lat="45.4310152" lon="7.6642743"><ele>789.8333333333334</ele><time>2026-04-04T14:12:01.942Z</time></trkpt><trkpt lat="45.4310393" lon="7.6643971"><ele>789.0</ele><time>2026-04-04T14:12:02.954Z</time></trkpt><trkpt lat="45.4310545" lon="7.6645057"><ele>789.0</ele><time>2026-04-04T14:12:03.946Z</time></trkpt><trkpt lat="45.4310281" lon="7.6646475"><ele>789.0</ele><time>2026-04-04T14:12:05.95Z</time></trkpt><trkpt lat="45.4309587" lon="7.6646876"><ele>789.0</ele><time>2026-04-04T14:12:07.955Z</time></trkpt><trkpt lat="45.430883" lon="7.6646646"><ele>789.0</ele><time>2026-04-04T14:12:09.952Z</time></trkpt><trkpt lat="45.4307838" lon="7.6645014"><ele>789.0</ele><time>2026-04-04T14:12:11.956Z</time></trkpt><trkpt lat="45.430739" lon="7.6643729"><ele>789.0</ele><time>2026-04-04T14:12:12.95Z</time></trkpt><trkpt lat="45.4306828" lon="7.6642612"><ele>789.0</ele><time>2026-04-04T14:12:13.944Z</time></trkpt><trkpt lat="45.4306329" lon="7.6641631"><ele>789.0</ele><time>2026-04-04T14:12:14.952Z</time></trkpt><trkpt lat="45.4305805" lon="7.6640662"><ele>789.0</ele><time>2026-04-04T14:12:15.949Z</time></trkpt><trkpt lat="45.4305453" lon="7.6639818"><ele>789.0</ele><time>2026-04-04T14:12:16.959Z</time></trkpt><trkpt lat="45.4304694" lon="7.6638852"><ele>789.0</ele><time>2026-04-04T14:12:18.955Z</time></trkpt><trkpt lat="45.4304115" lon="7.6639518"><ele>785.6</ele><time>2026-04-04T14:12:22.96Z</time></trkpt><trkpt lat="45.4303896" lon="7.6641426"><ele>782.2</ele><time>2026-04-04T14:12:24.952Z</time></trkpt><trkpt lat="45.4303659" lon="7.6642812"><ele>778.8000000000001</ele><time>2026-04-04T14:12:25.954Z</time></trkpt><trkpt lat="45.4303335" lon="7.6643968"><ele>775.4000000000001</ele><time>2026-04-04T14:12:26.958Z</time></trkpt><trkpt lat="45.4303127" lon="7.6645024"><ele>772.0</ele><time>2026-04-04T14:12:27.957Z</time></trkpt><trkpt lat="45.4302903" lon="7.6646017"><ele>769.9999999999999</ele><time>2026-04-04T14:12:28.955Z</time></trkpt><trkpt lat="45.4302967" lon="7.6647502"><ele>768.0</ele><time>2026-04-04T14:12:30.953Z</time></trkpt><trkpt lat="45.4303278" lon="7.6648723"><ele>766.0</ele><time>2026-04-04T14:12:32.947Z</time></trkpt><trkpt lat="45.4303646" lon="7.6649754"><ele>764.0</ele><time>2026-04-04T14:12:34.96Z</time></trkpt><trkpt lat="45.4303407" lon="7.6650813"><ele>762.0</ele><time>2026-04-04T14:12:37.959Z</time></trkpt><trkpt lat="45.4302787" lon="7.6650982"><ele>760.0</ele><time>2026-04-04T14:12:39.956Z</time></trkpt><trkpt lat="45.4302088" lon="7.6651188"><ele>760.0</ele><time>2026-04-04T14:12:41.954Z</time></trkpt><trkpt lat="45.4301452" lon="7.6650926"><ele>760.0</ele><time>2026-04-04T14:12:43.946Z</time></trkpt><trkpt lat="45.4300834" lon="7.6651138"><ele>760.0</ele><time>2026-04-04T14:12:46.953Z</time></trkpt><trkpt lat="45.430028" lon="7.6651661"><ele>760.0</ele><time>2026-04-04T14:12:48.945Z</time></trkpt><trkpt lat="45.4299669" lon="7.6652069"><ele>760.0</ele><time>2026-04-04T14:12:50.954Z</time></trkpt><trkpt lat="45.4298911" lon="7.6652208"><ele>760.0</ele><time>2026-04-04T14:12:53.963Z</time></trkpt><trkpt lat="45.4298258" lon="7.6652411"><ele>760.0</ele><time>2026-04-04T14:12:59.944Z</time></trkpt><trkpt lat="45.4297562" lon="7.6652881"><ele>760.4285714285714</ele><time>2026-04-04T14:13:06.948Z</time></trkpt><trkpt lat="45.4296863" lon="7.6653088"><ele>760.8571428571429</ele><time>2026-04-04T14:13:10.958Z</time></trkpt><trkpt lat="45.4296166" lon="7.6653148"><ele>761.2857142857142</ele><time>2026-04-04T14:13:13.949Z</time></trkpt><trkpt lat="45.4295484" lon="7.665305"><ele>761.7142857142858</ele><time>2026-04-04T14:13:15.958Z</time></trkpt><trkpt lat="45.4294853" lon="7.6652998"><ele>762.1428571428571</ele><time>2026-04-04T14:13:17.952Z</time></trkpt><trkpt lat="45.4294197" lon="7.6652895"><ele>762.5714285714286</ele><time>2026-04-04T14:13:19.958Z</time></trkpt><trkpt lat="45.4293484" lon="7.6652885"><ele>763.0</ele><time>2026-04-04T14:13:21.953Z</time></trkpt><trkpt lat="45.429285" lon="7.6652748"><ele>760.5714285714286</ele><time>2026-04-04T14:13:23.955Z</time></trkpt><trkpt lat="45.4292288" lon="7.6652232"><ele>758.1428571428571</ele><time>2026-04-04T14:13:25.953Z</time></trkpt><trkpt lat="45.4291791" lon="7.6651612"><ele>755.7142857142858</ele><time>2026-04-04T14:13:27.951Z</time></trkpt><trkpt lat="45.4291047" lon="7.6650971"><ele>753.2857142857142</ele><time>2026-04-04T14:13:30.943Z</time></trkpt><trkpt lat="45.4290401" lon="7.6650875"><ele>750.8571428571429</ele><time>2026-04-04T14:13:33.954Z</time></trkpt><trkpt lat="45.4289791" lon="7.6650306"><ele>748.4285714285714</ele><time>2026-04-04T14:13:40.954Z</time></trkpt><trkpt lat="45.428915" lon="7.6649977"><ele>746.0</ele><time>2026-04-04T14:13:47.952Z</time></trkpt><trkpt lat="45.4288863" lon="7.6649087"><ele>746.0</ele><time>2026-04-04T14:14:05.955Z</time></trkpt><trkpt lat="45.4288983" lon="7.6647986"><ele>746.0</ele><time>2026-04-04T14:14:17.955Z</time></trkpt><trkpt lat="45.4289495" lon="7.6647447"><ele>746.0</ele><time>2026-04-04T14:14:28.96Z</time></trkpt><trkpt lat="45.4289103" lon="7.6648183"><ele>746.0</ele><time>2026-04-04T14:16:14.964Z</time></trkpt><trkpt lat="45.4288872" lon="7.6647268"><ele>746.0</ele><time>2026-04-04T14:16:42.956Z</time></trkpt><trkpt lat="45.4288929" lon="7.6646162"><ele>746.0</ele><time>2026-04-04T14:16:46.95Z</time></trkpt><trkpt lat="45.4289228" lon="7.6645268"><ele>746.0</ele><time>2026-04-04T14:17:44.951Z</time></trkpt><trkpt lat="45.4289986" lon="7.6644034"><ele>747.8571428571429</ele><time>2026-04-04T14:29:16.962Z</time></trkpt><trkpt lat="45.4289353" lon="7.664378"><ele>749.7142857142858</ele><time>2026-04-04T14:29:25.96Z</time></trkpt><trkpt lat="45.428895" lon="7.6643085"><ele>751.5714285714286</ele><time>2026-04-04T14:30:00.973Z</time></trkpt><trkpt lat="45.4288434" lon="7.6642516"><ele>753.4285714285714</ele><time>2026-04-04T14:30:04.964Z</time></trkpt><trkpt lat="45.4287808" lon="7.6641819"><ele>755.2857142857142</ele><time>2026-04-04T14:30:08.971Z</time></trkpt><trkpt lat="45.428718" lon="7.6641693"><ele>757.1428571428571</ele><time>2026-04-04T14:30:12.068Z</time></trkpt><trkpt lat="45.4286491" lon="7.6641676"><ele>759.0</ele><time>2026-04-04T14:30:15.982Z</time></trkpt><trkpt lat="45.4286551" lon="7.6640758"><ele>759.0</ele><time>2026-04-04T14:30:39.947Z</time></trkpt><trkpt lat="45.4287216" lon="7.6640407"><ele>759.0</ele><time>2026-04-04T14:30:45.947Z</time></trkpt><trkpt lat="45.4287923" lon="7.6640565"><ele>759.0</ele><time>2026-04-04T14:30:48.954Z</time></trkpt><trkpt lat="45.4288605" lon="7.6640543"><ele>759.0</ele><time>2026-04-04T14:30:51.977Z</time></trkpt><trkpt lat="45.428937" lon="7.664044"><ele>759.0</ele><time>2026-04-04T14:30:55.953Z</time></trkpt><trkpt lat="45.4289698" lon="7.6639654"><ele>759.0</ele><time>2026-04-04T14:31:00.949Z</time></trkpt><trkpt lat="45.4289894" lon="7.6638762"><ele>759.0</ele><time>2026-04-04T14:31:04.037Z</time></trkpt><trkpt lat="45.4290175" lon="7.6637874"><ele>759.0</ele><time>2026-04-04T14:31:08.947Z</time></trkpt><trkpt lat="45.4290313" lon="7.6636766"><ele>759.0</ele><time>2026-04-04T14:31:12.958Z</time></trkpt><trkpt lat="45.4290526" lon="7.6635851"><ele>759.0</ele><time>2026-04-04T14:31:19.953Z</time></trkpt><trkpt lat="45.4290821" lon="7.6635029"><ele>759.0</ele><time>2026-04-04T14:31:32.949Z</time></trkpt><trkpt lat="45.4291108" lon="7.6635972"><ele>759.0</ele><time>2026-04-04T14:31:41.95Z</time></trkpt><trkpt lat="45.4291602" lon="7.6636844"><ele>759.0</ele><time>2026-04-04T14:31:45.945Z</time></trkpt><trkpt lat="45.4291752" lon="7.6637866"><ele>759.0</ele><time>2026-04-04T14:31:48.946Z</time></trkpt><trkpt lat="45.4291687" lon="7.6639"><ele>759.0</ele><time>2026-04-04T14:31:51.944Z</time></trkpt><trkpt lat="45.4291622" lon="7.664012"><ele>759.0</ele><time>2026-04-04T14:31:54.956Z</time></trkpt><trkpt lat="45.4291515" lon="7.6641203"><ele>759.0</ele><time>2026-04-04T14:31:57.948Z</time></trkpt><trkpt lat="45.4291304" lon="7.664205"><ele>759.0</ele><time>2026-04-04T14:32:00.954Z</time></trkpt><trkpt lat="45.4291036" lon="7.6642944"><ele>759.0</ele><time>2026-04-04T14:32:04.942Z</time></trkpt><trkpt lat="45.4290798" lon="7.6643915"><ele>759.0</ele><time>2026-04-04T14:32:08.952Z</time></trkpt><trkpt lat="45.4290858" lon="7.6644932"><ele>759.0</ele><time>2026-04-04T14:32:12.95Z</time></trkpt><trkpt lat="45.4290791" lon="7.6646095"><ele>757.1428571428571</ele><time>2026-04-04T14:32:16.937Z</time></trkpt><trkpt lat="45.4290894" lon="7.6646981"><ele>755.2857142857142</ele><time>2026-04-04T14:32:19.956Z</time></trkpt><trkpt lat="45.4290237" lon="7.6647552"><ele>753.4285714285714</ele><time>2026-04-04T14:32:24.033Z</time></trkpt><trkpt lat="45.4289557" lon="7.6647281"><ele>751.5714285714286</ele><time>2026-04-04T14:32:27.949Z</time></trkpt><trkpt lat="45.4289014" lon="7.6646766"><ele>749.7142857142858</ele><time>2026-04-04T14:32:30.95Z</time></trkpt><trkpt lat="45.4288339" lon="7.6647177"><ele>747.8571428571429</ele><time>2026-04-04T14:32:34.95Z</time></trkpt><trkpt lat="45.4288017" lon="7.6648133"><ele>746.0</ele><time>2026-04-04T14:32:40.959Z</time></trkpt><trkpt lat="45.4287431" lon="7.6648498"><ele>744.0</ele><time>2026-04-04T14:32:42.965Z</time></trkpt><trkpt lat="45.4286631" lon="7.6648553"><ele>742.0</ele><time>2026-04-04T14:32:44.958Z</time></trkpt><trkpt lat="45.4285994" lon="7.6648682"><ele>740.0</ele><time>2026-04-04T14:32:47.03Z</time></trkpt><trkpt lat="45.4285188" lon="7.6648625"><ele>738.0</ele><time>2026-04-04T14:32:49.955Z</time></trkpt><trkpt lat="45.4284407" lon="7.6647997"><ele>736.0</ele><time>2026-04-04T14:32:52.956Z</time></trkpt><trkpt lat="45.4283859" lon="7.6647544"><ele>734.0</ele><time>2026-04-04T14:32:54.956Z</time></trkpt><trkpt lat="45.4282946" lon="7.6646933"><ele>734.0</ele><time>2026-04-04T14:32:57.952Z</time></trkpt><trkpt lat="45.4282383" lon="7.6646318"><ele>734.0</ele><time>2026-04-04T14:32:59.955Z</time></trkpt><trkpt lat="45.4281873" lon="7.6645766"><ele>734.0</ele><time>2026-04-04T14:33:01.954Z</time></trkpt><trkpt lat="45.4281224" lon="7.6645188"><ele>734.0</ele><time>2026-04-04T14:33:04.957Z</time></trkpt><trkpt lat="45.4280636" lon="7.6644683"><ele>734.0</ele><time>2026-04-04T14:34:24.966Z</time></trkpt><trkpt lat="45.4280031" lon="7.6644196"><ele>734.0</ele><time>2026-04-04T14:34:27.973Z</time></trkpt><trkpt lat="45.4279147" lon="7.6643605"><ele>734.0</ele><time>2026-04-04T14:34:30.96Z</time></trkpt><trkpt lat="45.4278571" lon="7.6643165"><ele>730.8333333333333</ele><time>2026-04-04T14:34:32.972Z</time></trkpt><trkpt lat="45.4277882" lon="7.6643064"><ele>727.6666666666666</ele><time>2026-04-04T14:34:36.969Z</time></trkpt><trkpt lat="45.42772" lon="7.6643212"><ele>724.5</ele><time>2026-04-04T14:34:39.962Z</time></trkpt><trkpt lat="45.4275771" lon="7.6643426"><ele>721.3333333333334</ele><time>2026-04-04T14:34:43.978Z</time></trkpt><trkpt lat="45.4275108" lon="7.6643382"><ele>718.1666666666667</ele><time>2026-04-04T14:34:44.968Z</time></trkpt><trkpt lat="45.4274477" lon="7.6643668"><ele>715.0</ele><time>2026-04-04T14:34:46.968Z</time></trkpt><trkpt lat="45.4273883" lon="7.6644139"><ele>715.0</ele><time>2026-04-04T14:34:49.957Z</time></trkpt><trkpt lat="45.4273298" lon="7.6644994"><ele>715.0</ele><time>2026-04-04T14:34:56.965Z</time></trkpt><trkpt lat="45.427265" lon="7.6645243"><ele>715.0</ele><time>2026-04-04T14:35:31.955Z</time></trkpt><trkpt lat="45.4272227" lon="7.6644501"><ele>715.0</ele><time>2026-04-04T14:36:43.959Z</time></trkpt><trkpt lat="45.4272713" lon="7.6643847"><ele>715.0</ele><time>2026-04-04T14:37:32.954Z</time></trkpt><trkpt lat="45.4273147" lon="7.6643187"><ele>715.0</ele><time>2026-04-04T14:38:03.952Z</time></trkpt><trkpt lat="45.427379" lon="7.6642956"><ele>715.0</ele><time>2026-04-04T14:38:14.938Z</time></trkpt><trkpt lat="45.4274542" lon="7.6644076"><ele>715.0</ele><time>2026-04-04T14:40:25.948Z</time></trkpt><trkpt lat="45.4274819" lon="7.6644924"><ele>715.0</ele><time>2026-04-04T14:40:37.953Z</time></trkpt><trkpt lat="45.4275253" lon="7.6645628"><ele>715.0</ele><time>2026-04-04T14:40:48.939Z</time></trkpt><trkpt lat="45.4275922" lon="7.6645883"><ele>715.0</ele><time>2026-04-04T14:40:55.925Z</time></trkpt><trkpt lat="45.4276206" lon="7.6646985"><ele>715.0</ele><time>2026-04-04T14:41:31.961Z</time></trkpt><trkpt lat="45.4275949" lon="7.6646098"><ele>715.0</ele><time>2026-04-04T14:41:55.172Z</time></trkpt><trkpt lat="45.427522" lon="7.6645435"><ele>715.0</ele><time>2026-04-04T14:42:28.013Z</time></trkpt><trkpt lat="45.4274698" lon="7.6643765"><ele>715.0</ele><time>2026-04-04T14:46:33.95Z</time></trkpt><trkpt lat="45.4274038" lon="7.6643365"><ele>715.0</ele><time>2026-04-04T14:47:35.948Z</time></trkpt><trkpt lat="45.4273384" lon="7.6643724"><ele>715.0</ele><time>2026-04-04T14:47:49.94Z</time></trkpt><trkpt lat="45.4272819" lon="7.6644357"><ele>715.0</ele><time>2026-04-04T14:48:00.938Z</time></trkpt><trkpt lat="45.4272034" lon="7.6644558"><ele>715.0</ele><time>2026-04-04T14:50:31.933Z</time></trkpt><trkpt lat="45.4271504" lon="7.6645272"><ele>715.0</ele><time>2026-04-04T14:50:38.013Z</time></trkpt><trkpt lat="45.4270725" lon="7.6645553"><ele>715.0</ele><time>2026-04-04T14:50:41.946Z</time></trkpt><trkpt lat="45.4269869" lon="7.6645285"><ele>714.5</ele><time>2026-04-04T14:50:44.915Z</time></trkpt><trkpt lat="45.4268921" lon="7.6645223"><ele>714.0</ele><time>2026-04-04T14:50:47.949Z</time></trkpt><trkpt lat="45.4268103" lon="7.6645487"><ele>713.5</ele><time>2026-04-04T14:50:50.915Z</time></trkpt><trkpt lat="45.4267532" lon="7.6644874"><ele>713.0</ele><time>2026-04-04T14:50:53.951Z</time></trkpt><trkpt lat="45.4267465" lon="7.6643874"><ele>712.5</ele><time>2026-04-04T14:51:00.944Z</time></trkpt><trkpt lat="45.4266786" lon="7.664394"><ele>712.0</ele><time>2026-04-04T14:51:06.946Z</time></trkpt><trkpt lat="45.4266081" lon="7.6644382"><ele>711.9999999999999</ele><time>2026-04-04T14:51:13.947Z</time></trkpt><trkpt lat="45.4265466" lon="7.6645053"><ele>712.0</ele><time>2026-04-04T14:51:17.946Z</time></trkpt><trkpt lat="45.426495" lon="7.6645591"><ele>712.0</ele><time>2026-04-04T14:51:23.944Z</time></trkpt><trkpt lat="45.4264298" lon="7.6645714"><ele>712.0</ele><time>2026-04-04T14:51:26.95Z</time></trkpt><trkpt lat="45.4263604" lon="7.6646101"><ele>712.0</ele><time>2026-04-04T14:51:29.941Z</time></trkpt><trkpt lat="45.4262716" lon="7.6646413"><ele>711.9999999999999</ele><time>2026-04-04T14:51:32.949Z</time></trkpt><trkpt lat="45.4261997" lon="7.6646608"><ele>712.0</ele><time>2026-04-04T14:51:34.936Z</time></trkpt><trkpt lat="45.426131" lon="7.6646749"><ele>709.1666666666667</ele><time>2026-04-04T14:51:36.948Z</time></trkpt><trkpt lat="45.4260654" lon="7.6646838"><ele>706.3333333333334</ele><time>2026-04-04T14:51:38.949Z</time></trkpt><trkpt lat="45.4259863" lon="7.664721"><ele>703.5</ele><time>2026-04-04T14:51:41.947Z</time></trkpt><trkpt lat="45.425899" lon="7.6647569"><ele>700.6666666666666</ele><time>2026-04-04T14:51:44.945Z</time></trkpt><trkpt lat="45.4258124" lon="7.6648116"><ele>697.8333333333333</ele><time>2026-04-04T14:51:47.944Z</time></trkpt><trkpt lat="45.4257317" lon="7.6648783"><ele>695.0</ele><time>2026-04-04T14:51:49.94Z</time></trkpt><trkpt lat="45.4256494" lon="7.6649368"><ele>695.0</ele><time>2026-04-04T14:51:51.943Z</time></trkpt><trkpt lat="45.4255654" lon="7.6650268"><ele>695.0</ele><time>2026-04-04T14:51:53.952Z</time></trkpt><trkpt lat="45.4254795" lon="7.6650955"><ele>695.0</ele><time>2026-04-04T14:51:54.946Z</time></trkpt><trkpt lat="45.4252196" lon="7.6652328"><ele>693.6</ele><time>2026-04-04T14:51:56.029Z</time></trkpt><trkpt lat="45.4250681" lon="7.6652981"><ele>692.2</ele><time>2026-04-04T14:51:56.953Z</time></trkpt><trkpt lat="45.4249906" lon="7.6653639"><ele>690.8</ele><time>2026-04-04T14:51:57.945Z</time></trkpt><trkpt lat="45.4249403" lon="7.6654245"><ele>689.4</ele><time>2026-04-04T14:51:58.956Z</time></trkpt><trkpt lat="45.4248801" lon="7.6654947"><ele>688.0</ele><time>2026-04-04T14:52:00.957Z</time></trkpt><trkpt lat="45.4248218" lon="7.6655532"><ele>688.0</ele><time>2026-04-04T14:52:02.955Z</time></trkpt><trkpt lat="45.4247356" lon="7.6655941"><ele>688.0</ele><time>2026-04-04T14:52:04.959Z</time></trkpt><trkpt lat="45.4246722" lon="7.6656559"><ele>688.0</ele><time>2026-04-04T14:52:06.959Z</time></trkpt><trkpt lat="45.4246039" lon="7.6657553"><ele>688.0</ele><time>2026-04-04T14:52:08.958Z</time></trkpt><trkpt lat="45.4245638" lon="7.6658316"><ele>688.0</ele><time>2026-04-04T14:52:10.952Z</time></trkpt><trkpt lat="45.4245198" lon="7.6659069"><ele>688.0</ele><time>2026-04-04T14:52:12.961Z</time></trkpt><trkpt lat="45.4244653" lon="7.6659985"><ele>686.5</ele><time>2026-04-04T14:52:14.952Z</time></trkpt><trkpt lat="45.4243704" lon="7.6661197"><ele>685.0</ele><time>2026-04-04T14:52:16.954Z</time></trkpt><trkpt lat="45.4243247" lon="7.6661917"><ele>683.5</ele><time>2026-04-04T14:52:17.96Z</time></trkpt><trkpt lat="45.4242779" lon="7.6662625"><ele>682.0</ele><time>2026-04-04T14:52:18.954Z</time></trkpt><trkpt lat="45.4242454" lon="7.6663509"><ele>680.5</ele><time>2026-04-04T14:52:19.958Z</time></trkpt><trkpt lat="45.4242118" lon="7.6664303"><ele>679.0</ele><time>2026-04-04T14:52:20.955Z</time></trkpt><trkpt lat="45.4241307" lon="7.6665538"><ele>679.0</ele><time>2026-04-04T14:52:22.954Z</time></trkpt><trkpt lat="45.4240429" lon="7.6666672"><ele>679.0</ele><time>2026-04-04T14:52:25.03Z</time></trkpt><trkpt lat="45.4239578" lon="7.6667795"><ele>679.0</ele><time>2026-04-04T14:52:26.959Z</time></trkpt><trkpt lat="45.4239021" lon="7.6668846"><ele>679.0</ele><time>2026-04-04T14:52:28.952Z</time></trkpt><trkpt lat="45.4238347" lon="7.6669501"><ele>679.0</ele><time>2026-04-04T14:52:31.951Z</time></trkpt><trkpt lat="45.423772" lon="7.6670055"><ele>678.5</ele><time>2026-04-04T14:52:34.956Z</time></trkpt><trkpt lat="45.4236943" lon="7.667103"><ele>678.0</ele><time>2026-04-04T14:52:37.963Z</time></trkpt><trkpt lat="45.4236267" lon="7.6671619"><ele>677.5</ele><time>2026-04-04T14:52:39.961Z</time></trkpt><trkpt lat="45.4235579" lon="7.6671819"><ele>677.0</ele><time>2026-04-04T14:52:41.958Z</time></trkpt><trkpt lat="45.4234849" lon="7.6671827"><ele>676.5</ele><time>2026-04-04T14:52:43.963Z</time></trkpt><trkpt lat="45.423384" lon="7.6672"><ele>676.0</ele><time>2026-04-04T14:52:45.955Z</time></trkpt><trkpt lat="45.4233189" lon="7.6672132"><ele>676.0</ele><time>2026-04-04T14:52:46.958Z</time></trkpt><trkpt lat="45.4232558" lon="7.6672252"><ele>676.0</ele><time>2026-04-04T14:52:47.961Z</time></trkpt><trkpt lat="45.4231928" lon="7.6672353"><ele>676.0</ele><time>2026-04-04T14:52:48.964Z</time></trkpt><trkpt lat="45.4230811" lon="7.6672438"><ele>676.0</ele><time>2026-04-04T14:52:50.958Z</time></trkpt><trkpt lat="45.4230059" lon="7.6672621"><ele>676.0</ele><time>2026-04-04T14:52:52.958Z</time></trkpt><trkpt lat="45.4229476" lon="7.6673281"><ele>676.0</ele><time>2026-04-04T14:52:54.962Z</time></trkpt><trkpt lat="45.4229085" lon="7.6674164"><ele>672.1999999999999</ele><time>2026-04-04T14:52:56.959Z</time></trkpt><trkpt lat="45.4228649" lon="7.6675016"><ele>668.4</ele><time>2026-04-04T14:52:58.965Z</time></trkpt><trkpt lat="45.4228091" lon="7.6676088"><ele>664.6</ele><time>2026-04-04T14:53:00.945Z</time></trkpt><trkpt lat="45.4227442" lon="7.6677115"><ele>660.8</ele><time>2026-04-04T14:53:02.966Z</time></trkpt><trkpt lat="45.4226404" lon="7.6678243"><ele>657.0</ele><time>2026-04-04T14:53:04.957Z</time></trkpt><trkpt lat="45.4225708" lon="7.6679337"><ele>657.0</ele><time>2026-04-04T14:53:06.958Z</time></trkpt><trkpt lat="45.4225086" lon="7.6680555"><ele>657.0</ele><time>2026-04-04T14:53:08.96Z</time></trkpt><trkpt lat="45.4224448" lon="7.6681698"><ele>657.0</ele><time>2026-04-04T14:53:10.959Z</time></trkpt><trkpt lat="45.4223837" lon="7.6682528"><ele>657.0</ele><time>2026-04-04T14:53:12.965Z</time></trkpt><trkpt lat="45.4222942" lon="7.6683204"><ele>657.0</ele><time>2026-04-04T14:53:14.963Z</time></trkpt><trkpt lat="45.4221874" lon="7.6683677"><ele>652.4</ele><time>2026-04-04T14:53:16.956Z</time></trkpt><trkpt lat="45.4220697" lon="7.6684077"><ele>647.8000000000001</ele><time>2026-04-04T14:53:18.963Z</time></trkpt><trkpt lat="45.4219502" lon="7.668446"><ele>643.2</ele><time>2026-04-04T14:53:20.964Z</time></trkpt><trkpt lat="45.4218488" lon="7.6684743"><ele>638.6</ele><time>2026-04-04T14:53:22.959Z</time></trkpt><trkpt lat="45.4217601" lon="7.6685206"><ele>634.0</ele><time>2026-04-04T14:53:24.961Z</time></trkpt><trkpt lat="45.4216778" lon="7.6685972"><ele>633.75</ele><time>2026-04-04T14:53:26.959Z</time></trkpt><trkpt lat="45.4216099" lon="7.6687113"><ele>633.5</ele><time>2026-04-04T14:53:28.957Z</time></trkpt><trkpt lat="45.4215385" lon="7.6688391"><ele>633.25</ele><time>2026-04-04T14:53:30.98Z</time></trkpt><trkpt lat="45.4214737" lon="7.6689942"><ele>633.0</ele><time>2026-04-04T14:53:32.944Z</time></trkpt><trkpt lat="45.4214103" lon="7.6691525"><ele>633.0</ele><time>2026-04-04T14:53:34.942Z</time></trkpt><trkpt lat="45.421355" lon="7.6692899"><ele>633.0</ele><time>2026-04-04T14:53:36.95Z</time></trkpt><trkpt lat="45.4213132" lon="7.6694153"><ele>633.0</ele><time>2026-04-04T14:53:38.956Z</time></trkpt><trkpt lat="45.4212797" lon="7.6694971"><ele>633.0</ele><time>2026-04-04T14:53:40.957Z</time></trkpt><trkpt lat="45.4212076" lon="7.6695121"><ele>633.0</ele><time>2026-04-04T14:53:43.956Z</time></trkpt><trkpt lat="45.4211729" lon="7.6694312"><ele>633.0</ele><time>2026-04-04T14:56:14.942Z</time></trkpt><trkpt lat="45.4211411" lon="7.669298"><ele>629.0</ele><time>2026-04-04T14:56:16.947Z</time></trkpt><trkpt lat="45.4211062" lon="7.669187"><ele>625.0</ele><time>2026-04-04T14:56:18.95Z</time></trkpt><trkpt lat="45.4210698" lon="7.6690656"><ele>621.0</ele><time>2026-04-04T14:56:20.948Z</time></trkpt><trkpt lat="45.4210624" lon="7.6689032"><ele>617.0</ele><time>2026-04-04T14:56:22.945Z</time></trkpt><trkpt lat="45.4210831" lon="7.6687383"><ele>613.0</ele><time>2026-04-04T14:56:25.029Z</time></trkpt><trkpt lat="45.4211176" lon="7.6685958"><ele>612.4</ele><time>2026-04-04T14:56:27.028Z</time></trkpt><trkpt lat="45.4211677" lon="7.6684839"><ele>611.8</ele><time>2026-04-04T14:56:28.96Z</time></trkpt><trkpt lat="45.4212396" lon="7.6683746"><ele>611.2</ele><time>2026-04-04T14:56:31.042Z</time></trkpt><trkpt lat="45.4213328" lon="7.6682571"><ele>610.6</ele><time>2026-04-04T14:56:32.956Z</time></trkpt><trkpt lat="45.4214025" lon="7.6681252"><ele>610.0</ele><time>2026-04-04T14:56:34.989Z</time></trkpt><trkpt lat="45.4214865" lon="7.6680278"><ele>613.4</ele><time>2026-04-04T14:56:37.026Z</time></trkpt><trkpt lat="45.4215547" lon="7.6679508"><ele>616.8</ele><time>2026-04-04T14:56:38.956Z</time></trkpt><trkpt lat="45.4216515" lon="7.6679223"><ele>620.2</ele><time>2026-04-04T14:56:40.962Z</time></trkpt><trkpt lat="45.4217421" lon="7.6678871"><ele>623.6</ele><time>2026-04-04T14:56:42.97Z</time></trkpt><trkpt lat="45.421797" lon="7.6677906"><ele>627.0</ele><time>2026-04-04T14:56:44.952Z</time></trkpt><trkpt lat="45.4218467" lon="7.6676882"><ele>627.0</ele><time>2026-04-04T14:56:46.968Z</time></trkpt><trkpt lat="45.4219152" lon="7.6675848"><ele>627.0</ele><time>2026-04-04T14:56:48.953Z</time></trkpt><trkpt lat="45.4219685" lon="7.6674983"><ele>627.0</ele><time>2026-04-04T14:56:51.034Z</time></trkpt><trkpt lat="45.4220174" lon="7.6673978"><ele>627.0</ele><time>2026-04-04T14:56:52.966Z</time></trkpt><trkpt lat="45.4220168" lon="7.6672789"><ele>627.0</ele><time>2026-04-04T14:56:54.961Z</time></trkpt><trkpt lat="45.4220228" lon="7.6671515"><ele>627.0</ele><time>2026-04-04T14:56:56.955Z</time></trkpt><trkpt lat="45.4220115" lon="7.667034"><ele>627.0</ele><time>2026-04-04T14:56:58.976Z</time></trkpt><trkpt lat="45.4219643" lon="7.6669289"><ele>627.0</ele><time>2026-04-04T14:57:01.966Z</time></trkpt><trkpt lat="45.4218803" lon="7.6669055"><ele>627.0</ele><time>2026-04-04T14:57:04.963Z</time></trkpt><trkpt lat="45.4217951" lon="7.6669836"><ele>627.0</ele><time>2026-04-04T14:57:07.024Z</time></trkpt><trkpt lat="45.4217447" lon="7.6670391"><ele>627.0</ele><time>2026-04-04T14:57:07.952Z</time></trkpt><trkpt lat="45.421689" lon="7.6670892"><ele>627.0</ele><time>2026-04-04T14:57:08.958Z</time></trkpt><trkpt lat="45.4216315" lon="7.6671452"><ele>627.0</ele><time>2026-04-04T14:57:09.995Z</time></trkpt><trkpt lat="45.4215708" lon="7.6671979"><ele>627.0</ele><time>2026-04-04T14:57:10.949Z</time></trkpt><trkpt lat="45.4215119" lon="7.6672518"><ele>627.0</ele><time>2026-04-04T14:57:11.96Z</time></trkpt><trkpt lat="45.4214611" lon="7.6673051"><ele>627.0</ele><time>2026-04-04T14:57:12.962Z</time></trkpt><trkpt lat="45.4213673" lon="7.6674023"><ele>627.0</ele><time>2026-04-04T14:57:14.956Z</time></trkpt><trkpt lat="45.4212595" lon="7.6674538"><ele>627.0</ele><time>2026-04-04T14:57:16.944Z</time></trkpt><trkpt lat="45.4211945" lon="7.6674649"><ele>625.0</ele><time>2026-04-04T14:57:17.964Z</time></trkpt><trkpt lat="45.421131" lon="7.6674833"><ele>623.0</ele><time>2026-04-04T14:57:18.949Z</time></trkpt><trkpt lat="45.4210237" lon="7.6675172"><ele>621.0</ele><time>2026-04-04T14:57:20.946Z</time></trkpt><trkpt lat="45.4209361" lon="7.6675168"><ele>619.0</ele><time>2026-04-04T14:57:22.948Z</time></trkpt><trkpt lat="45.4208701" lon="7.667482"><ele>617.0</ele><time>2026-04-04T14:57:24.944Z</time></trkpt><trkpt lat="45.4207918" lon="7.6674258"><ele>615.0</ele><time>2026-04-04T14:57:27.952Z</time></trkpt><trkpt lat="45.4207203" lon="7.6673933"><ele>615.0</ele><time>2026-04-04T14:57:30.952Z</time></trkpt><trkpt lat="45.4206493" lon="7.6673744"><ele>615.0</ele><time>2026-04-04T14:57:33.946Z</time></trkpt><trkpt lat="45.4205828" lon="7.6673609"><ele>615.0</ele><time>2026-04-04T14:57:54.942Z</time></trkpt><trkpt lat="45.4204862" lon="7.6673509"><ele>615.0</ele><time>2026-04-04T14:57:57.946Z</time></trkpt><trkpt lat="45.4204168" lon="7.6673365"><ele>615.0</ele><time>2026-04-04T14:57:59.943Z</time></trkpt><trkpt lat="45.4203536" lon="7.6673418"><ele>615.0</ele><time>2026-04-04T14:58:02.957Z</time></trkpt><trkpt lat="45.420438" lon="7.6672981"><ele>615.0</ele><time>2026-04-04T14:58:06.939Z</time></trkpt><trkpt lat="45.420541" lon="7.6672728"><ele>615.0</ele><time>2026-04-04T14:58:08.943Z</time></trkpt><trkpt lat="45.4206499" lon="7.6672878"><ele>615.0</ele><time>2026-04-04T14:58:10.94Z</time></trkpt><trkpt lat="45.4207508" lon="7.667288"><ele>615.0</ele><time>2026-04-04T14:58:12.951Z</time></trkpt><trkpt lat="45.4208207" lon="7.6672929"><ele>615.0</ele><time>2026-04-04T14:58:14.948Z</time></trkpt><trkpt lat="45.4208961" lon="7.6672494"><ele>615.0</ele><time>2026-04-04T15:00:04.961Z</time></trkpt><trkpt lat="45.4209664" lon="7.6672038"><ele>615.0</ele><time>2026-04-04T15:00:06.953Z</time></trkpt><trkpt lat="45.4210415" lon="7.6671292"><ele>615.0</ele><time>2026-04-04T15:00:09.956Z</time></trkpt><trkpt lat="45.4210937" lon="7.6670613"><ele>615.0</ele><time>2026-04-04T15:00:11.959Z</time></trkpt><trkpt lat="45.4210516" lon="7.6671811"><ele>615.0</ele><time>2026-04-04T15:00:29.954Z</time></trkpt><trkpt lat="45.420999" lon="7.6672353"><ele>615.0</ele><time>2026-04-04T15:00:31.957Z</time></trkpt><trkpt lat="45.4209434" lon="7.6672862"><ele>615.0</ele><time>2026-04-04T15:00:33.956Z</time></trkpt><trkpt lat="45.4208606" lon="7.6673108"><ele>615.0</ele><time>2026-04-04T15:00:36.955Z</time></trkpt><trkpt lat="45.420825" lon="7.6672221"><ele>615.0</ele><time>2026-04-04T15:00:40.961Z</time></trkpt><trkpt lat="45.4208541" lon="7.6671186"><ele>615.0</ele><time>2026-04-04T15:00:43.951Z</time></trkpt><trkpt lat="45.4208724" lon="7.6670197"><ele>615.0</ele><time>2026-04-04T15:00:46.956Z</time></trkpt><trkpt lat="45.4208953" lon="7.6669113"><ele>615.0</ele><time>2026-04-04T15:00:49.962Z</time></trkpt><trkpt lat="45.4209123" lon="7.6667899"><ele>616.6666666666666</ele><time>2026-04-04T15:00:52.956Z</time></trkpt><trkpt lat="45.4209479" lon="7.666703"><ele>618.3333333333334</ele><time>2026-04-04T15:00:55.957Z</time></trkpt><trkpt lat="45.4209933" lon="7.666588"><ele>620.0</ele><time>2026-04-04T15:00:58.957Z</time></trkpt><trkpt lat="45.4210223" lon="7.6665004"><ele>621.6666666666667</ele><time>2026-04-04T15:01:00.946Z</time></trkpt><trkpt lat="45.4210718" lon="7.6664003"><ele>623.3333333333334</ele><time>2026-04-04T15:01:03.961Z</time></trkpt><trkpt lat="45.4211285" lon="7.6663001"><ele>625.0</ele><time>2026-04-04T15:01:06.962Z</time></trkpt><trkpt lat="45.4211774" lon="7.6662308"><ele>625.0</ele><time>2026-04-04T15:01:08.957Z</time></trkpt><trkpt lat="45.4212456" lon="7.6661575"><ele>625.0</ele><time>2026-04-04T15:01:10.956Z</time></trkpt><trkpt lat="45.4213169" lon="7.6660827"><ele>625.0</ele><time>2026-04-04T15:01:12.946Z</time></trkpt><trkpt lat="45.4213875" lon="7.6660171"><ele>625.0</ele><time>2026-04-04T15:01:15.961Z</time></trkpt><trkpt lat="45.4214515" lon="7.6659742"><ele>625.0</ele><time>2026-04-04T15:01:17.958Z</time></trkpt><trkpt lat="45.4215108" lon="7.665943"><ele>625.0</ele><time>2026-04-04T15:01:20.951Z</time></trkpt><trkpt lat="45.4215866" lon="7.6658873"><ele>628.1666666666667</ele><time>2026-04-04T15:01:23.957Z</time></trkpt><trkpt lat="45.4216491" lon="7.6658465"><ele>631.3333333333334</ele><time>2026-04-04T15:01:25.96Z</time></trkpt><trkpt lat="45.4217191" lon="7.6657878"><ele>634.5</ele><time>2026-04-04T15:01:27.967Z</time></trkpt><trkpt lat="45.4217834" lon="7.6657351"><ele>637.6666666666666</ele><time>2026-04-04T15:01:29.962Z</time></trkpt><trkpt lat="45.4218496" lon="7.6657454"><ele>640.8333333333333</ele><time>2026-04-04T15:01:35.96Z</time></trkpt><trkpt lat="45.421905" lon="7.6656734"><ele>644.0</ele><time>2026-04-04T15:01:45.96Z</time></trkpt><trkpt lat="45.4219865" lon="7.665614"><ele>644.0</ele><time>2026-04-04T15:02:09.963Z</time></trkpt><trkpt lat="45.4219796" lon="7.6657073"><ele>644.0</ele><time>2026-04-04T15:02:17.96Z</time></trkpt><trkpt lat="45.421936" lon="7.6657762"><ele>644.0</ele><time>2026-04-04T15:02:20.961Z</time></trkpt><trkpt lat="45.4218674" lon="7.6658382"><ele>644.0</ele><time>2026-04-04T15:02:23.944Z</time></trkpt><trkpt lat="45.4218061" lon="7.6659038"><ele>644.0</ele><time>2026-04-04T15:02:26.959Z</time></trkpt><trkpt lat="45.421737" lon="7.6659478"><ele>644.0</ele><time>2026-04-04T15:02:29.965Z</time></trkpt><trkpt lat="45.4216777" lon="7.6659834"><ele>644.0</ele><time>2026-04-04T15:02:32.959Z</time></trkpt><trkpt lat="45.4216158" lon="7.6660207"><ele>644.0</ele><time>2026-04-04T15:02:36.957Z</time></trkpt><trkpt lat="45.4215455" lon="7.6660556"><ele>644.0</ele><time>2026-04-04T15:02:39.957Z</time></trkpt><trkpt lat="45.4214729" lon="7.6660928"><ele>644.0</ele><time>2026-04-04T15:02:42.95Z</time></trkpt><trkpt lat="45.4214163" lon="7.6661433"><ele>644.0</ele><time>2026-04-04T15:02:45.959Z</time></trkpt><trkpt lat="45.4213566" lon="7.666203"><ele>644.0</ele><time>2026-04-04T15:02:49.957Z</time></trkpt><trkpt lat="45.4213105" lon="7.6662717"><ele>644.0</ele><time>2026-04-04T15:02:52.952Z</time></trkpt><trkpt lat="45.421263" lon="7.6663425"><ele>644.0</ele><time>2026-04-04T15:02:55.959Z</time></trkpt><trkpt lat="45.4212116" lon="7.6664141"><ele>641.2857142857143</ele><time>2026-04-04T15:02:58.946Z</time></trkpt><trkpt lat="45.4211634" lon="7.6664802"><ele>638.5714285714286</ele><time>2026-04-04T15:03:01.959Z</time></trkpt><trkpt lat="45.4211082" lon="7.6665461"><ele>635.8571428571429</ele><time>2026-04-04T15:03:06.963Z</time></trkpt><trkpt lat="45.4210593" lon="7.6666356"><ele>633.1428571428571</ele><time>2026-04-04T15:03:12.964Z</time></trkpt><trkpt lat="45.4210278" lon="7.6667167"><ele>630.4285714285714</ele><time>2026-04-04T15:03:15.961Z</time></trkpt><trkpt lat="45.4210061" lon="7.6668169"><ele>627.7142857142858</ele><time>2026-04-04T15:03:18.958Z</time></trkpt><trkpt lat="45.4209929" lon="7.6669117"><ele>625.0</ele><time>2026-04-04T15:03:21.961Z</time></trkpt><trkpt lat="45.4209652" lon="7.6670298"><ele>623.0</ele><time>2026-04-04T15:03:24.962Z</time></trkpt><trkpt lat="45.4209313" lon="7.6671333"><ele>621.0</ele><time>2026-04-04T15:03:27.96Z</time></trkpt><trkpt lat="45.4208804" lon="7.6672139"><ele>619.0</ele><time>2026-04-04T15:03:29.959Z</time></trkpt><trkpt lat="45.4207851" lon="7.6672469"><ele>617.0</ele><time>2026-04-04T15:03:31.958Z</time></trkpt><trkpt lat="45.4206717" lon="7.6672746"><ele>615.0</ele><time>2026-04-04T15:03:33.96Z</time></trkpt><trkpt lat="45.4205502" lon="7.6672799"><ele>615.0</ele><time>2026-04-04T15:03:35.962Z</time></trkpt><trkpt lat="45.4204863" lon="7.6672852"><ele>615.0</ele><time>2026-04-04T15:03:36.943Z</time></trkpt><trkpt lat="45.4203809" lon="7.6673275"><ele>615.0</ele><time>2026-04-04T15:03:38.962Z</time></trkpt><trkpt lat="45.4203021" lon="7.6673568"><ele>615.0</ele><time>2026-04-04T15:03:40.956Z</time></trkpt><trkpt lat="45.420204" lon="7.667369"><ele>615.0</ele><time>2026-04-04T15:03:42.96Z</time></trkpt><trkpt lat="45.4201064" lon="7.6673137"><ele>612.3333333333334</ele><time>2026-04-04T15:03:44.95Z</time></trkpt><trkpt lat="45.4199849" lon="7.6673031"><ele>609.6666666666666</ele><time>2026-04-04T15:03:46.958Z</time></trkpt><trkpt lat="45.4199168" lon="7.6673194"><ele>607.0</ele><time>2026-04-04T15:03:47.958Z</time></trkpt><trkpt lat="45.4198429" lon="7.6673411"><ele>604.3333333333333</ele><time>2026-04-04T15:03:48.953Z</time></trkpt><trkpt lat="45.4197717" lon="7.6673597"><ele>601.6666666666666</ele><time>2026-04-04T15:03:49.96Z</time></trkpt><trkpt lat="45.4197031" lon="7.6673718"><ele>599.0</ele><time>2026-04-04T15:03:50.959Z</time></trkpt><trkpt lat="45.4196404" lon="7.6674118"><ele>597.0</ele><time>2026-04-04T15:03:51.95Z</time></trkpt><trkpt lat="45.419545" lon="7.6674283"><ele>595.0</ele><time>2026-04-04T15:03:53.964Z</time></trkpt><trkpt lat="45.4194564" lon="7.6674402"><ele>593.0</ele><time>2026-04-04T15:03:55.957Z</time></trkpt><trkpt lat="45.419333" lon="7.6674639"><ele>591.0</ele><time>2026-04-04T15:03:57.961Z</time></trkpt><trkpt lat="45.4192647" lon="7.6674919"><ele>589.0</ele><time>2026-04-04T15:03:58.957Z</time></trkpt><trkpt lat="45.4191974" lon="7.6675235"><ele>589.0</ele><time>2026-04-04T15:03:59.966Z</time></trkpt><trkpt lat="45.4191313" lon="7.6675773"><ele>589.0</ele><time>2026-04-04T15:04:00.957Z</time></trkpt><trkpt lat="45.4190617" lon="7.6676485"><ele>589.0</ele><time>2026-04-04T15:04:01.965Z</time></trkpt><trkpt lat="45.4189936" lon="7.6677155"><ele>589.0</ele><time>2026-04-04T15:04:02.96Z</time></trkpt><trkpt lat="45.4189318" lon="7.6677792"><ele>589.0</ele><time>2026-04-04T15:04:03.961Z</time></trkpt><trkpt lat="45.4188721" lon="7.6678259"><ele>589.0</ele><time>2026-04-04T15:04:04.961Z</time></trkpt><trkpt lat="45.4188103" lon="7.6678451"><ele>586.1666666666667</ele><time>2026-04-04T15:04:05.963Z</time></trkpt><trkpt lat="45.4187378" lon="7.6678565"><ele>583.3333333333334</ele><time>2026-04-04T15:04:06.969Z</time></trkpt><trkpt lat="45.4186592" lon="7.6678486"><ele>580.5</ele><time>2026-04-04T15:04:07.953Z</time></trkpt><trkpt lat="45.4185872" lon="7.6678401"><ele>577.6666666666666</ele><time>2026-04-04T15:04:08.965Z</time></trkpt><trkpt lat="45.4185093" lon="7.6678374"><ele>574.8333333333333</ele><time>2026-04-04T15:04:09.958Z</time></trkpt><trkpt lat="45.418428" lon="7.6678269"><ele>572.0</ele><time>2026-04-04T15:04:10.953Z</time></trkpt><trkpt lat="45.4183468" lon="7.6678209"><ele>571.9999999999999</ele><time>2026-04-04T15:04:11.961Z</time></trkpt><trkpt lat="45.4182635" lon="7.667818"><ele>572.0</ele><time>2026-04-04T15:04:12.949Z</time></trkpt><trkpt lat="45.4181848" lon="7.667822"><ele>572.0</ele><time>2026-04-04T15:04:13.957Z</time></trkpt><trkpt lat="45.4181175" lon="7.6678182"><ele>572.0</ele><time>2026-04-04T15:04:14.963Z</time></trkpt><trkpt lat="45.4180501" lon="7.6678097"><ele>572.0</ele><time>2026-04-04T15:04:15.955Z</time></trkpt><trkpt lat="45.417983" lon="7.6678115"><ele>571.9999999999999</ele><time>2026-04-04T15:04:16.959Z</time></trkpt><trkpt lat="45.4179109" lon="7.6678196"><ele>572.0</ele><time>2026-04-04T15:04:17.958Z</time></trkpt><trkpt lat="45.4178437" lon="7.6678358"><ele>572.0</ele><time>2026-04-04T15:04:18.96Z</time></trkpt><trkpt lat="45.4177483" lon="7.6678835"><ele>572.0</ele><time>2026-04-04T15:04:20.96Z</time></trkpt><trkpt lat="45.4176308" lon="7.6679664"><ele>572.0</ele><time>2026-04-04T15:04:22.954Z</time></trkpt><trkpt lat="45.4175805" lon="7.6680289"><ele>572.0</ele><time>2026-04-04T15:04:23.956Z</time></trkpt><trkpt lat="45.4175238" lon="7.6681127"><ele>572.0</ele><time>2026-04-04T15:04:24.953Z</time></trkpt><trkpt lat="45.4174732" lon="7.6681894"><ele>572.0</ele><time>2026-04-04T15:04:25.96Z</time></trkpt><trkpt lat="45.4174177" lon="7.6682556"><ele>572.0</ele><time>2026-04-04T15:04:26.958Z</time></trkpt><trkpt lat="45.4173593" lon="7.6683146"><ele>572.0</ele><time>2026-04-04T15:04:27.958Z</time></trkpt><trkpt lat="45.417307" lon="7.6683776"><ele>572.0</ele><time>2026-04-04T15:04:28.954Z</time></trkpt><trkpt lat="45.4171967" lon="7.6684658"><ele>572.0</ele><time>2026-04-04T15:04:30.955Z</time></trkpt><trkpt lat="45.4171283" lon="7.6684982"><ele>572.0</ele><time>2026-04-04T15:04:31.953Z</time></trkpt><trkpt lat="45.4170564" lon="7.6685288"><ele>571.1666666666666</ele><time>2026-04-04T15:04:32.96Z</time></trkpt><trkpt lat="45.4169899" lon="7.6685513"><ele>570.3333333333333</ele><time>2026-04-04T15:04:33.956Z</time></trkpt><trkpt lat="45.4168876" lon="7.6686029"><ele>569.5</ele><time>2026-04-04T15:04:35.957Z</time></trkpt><trkpt lat="45.4168044" lon="7.6686769"><ele>568.6666666666666</ele><time>2026-04-04T15:04:37.967Z</time></trkpt><trkpt lat="45.4167293" lon="7.6687232"><ele>567.8333333333334</ele><time>2026-04-04T15:04:39.957Z</time></trkpt><trkpt lat="45.4166405" lon="7.6687087"><ele>567.0</ele><time>2026-04-04T15:04:41.953Z</time></trkpt><trkpt lat="45.4165511" lon="7.6686758"><ele>567.0</ele><time>2026-04-04T15:04:43.956Z</time></trkpt><trkpt lat="45.4164816" lon="7.6685826"><ele>567.0</ele><time>2026-04-04T15:04:45.949Z</time></trkpt><trkpt lat="45.4164133" lon="7.6685549"><ele>567.0</ele><time>2026-04-04T15:04:49.952Z</time></trkpt><trkpt lat="45.4163529" lon="7.6686043"><ele>567.0</ele><time>2026-04-04T15:05:25.958Z</time></trkpt><trkpt lat="45.4164114" lon="7.6685567"><ele>567.0</ele><time>2026-04-04T15:44:57.95Z</time></trkpt><trkpt lat="45.4163464" lon="7.6685041"><ele>567.0</ele><time>2026-04-04T15:45:14.952Z</time></trkpt><trkpt lat="45.4162791" lon="7.6684752"><ele>567.0</ele><time>2026-04-04T15:45:17.959Z</time></trkpt><trkpt lat="45.4162042" lon="7.668451"><ele>565.6666666666666</ele><time>2026-04-04T15:45:20.945Z</time></trkpt><trkpt lat="45.4161223" lon="7.6685295"><ele>564.3333333333334</ele><time>2026-04-04T15:45:25.959Z</time></trkpt><trkpt lat="45.4160581" lon="7.6685868"><ele>563.0</ele><time>2026-04-04T15:45:26.96Z</time></trkpt><trkpt lat="45.4159906" lon="7.6686217"><ele>561.6666666666667</ele><time>2026-04-04T15:45:27.961Z</time></trkpt><trkpt lat="45.4159315" lon="7.6686806"><ele>560.3333333333334</ele><time>2026-04-04T15:45:28.957Z</time></trkpt><trkpt lat="45.4158615" lon="7.6687388"><ele>559.0</ele><time>2026-04-04T15:45:29.962Z</time></trkpt><trkpt lat="45.4157902" lon="7.6687827"><ele>558.3333333333334</ele><time>2026-04-04T15:45:30.951Z</time></trkpt><trkpt lat="45.4157178" lon="7.6688242"><ele>557.6666666666667</ele><time>2026-04-04T15:45:31.959Z</time></trkpt><trkpt lat="45.4156496" lon="7.6688617"><ele>557.0</ele><time>2026-04-04T15:45:32.958Z</time></trkpt><trkpt lat="45.4155901" lon="7.6688974"><ele>556.3333333333334</ele><time>2026-04-04T15:45:33.966Z</time></trkpt><trkpt lat="45.4154584" lon="7.6689506"><ele>555.6666666666666</ele><time>2026-04-04T15:45:35.96Z</time></trkpt><trkpt lat="45.4153926" lon="7.6689775"><ele>555.0</ele><time>2026-04-04T15:45:36.945Z</time></trkpt><trkpt lat="45.4153167" lon="7.6689949"><ele>554.0</ele><time>2026-04-04T15:45:37.961Z</time></trkpt><trkpt lat="45.4152417" lon="7.6690317"><ele>553.0</ele><time>2026-04-04T15:45:38.968Z</time></trkpt><trkpt lat="45.4151721" lon="7.6690722"><ele>552.0</ele><time>2026-04-04T15:45:39.955Z</time></trkpt><trkpt lat="45.4150988" lon="7.6691203"><ele>551.0</ele><time>2026-04-04T15:45:40.95Z</time></trkpt><trkpt lat="45.4150334" lon="7.6691683"><ele>550.0</ele><time>2026-04-04T15:45:41.957Z</time></trkpt><trkpt lat="45.4149657" lon="7.6692391"><ele>549.0</ele><time>2026-04-04T15:45:42.958Z</time></trkpt><trkpt lat="45.4148957" lon="7.6693208"><ele>549.0</ele><time>2026-04-04T15:45:43.957Z</time></trkpt><trkpt lat="45.414828" lon="7.6693943"><ele>549.0</ele><time>2026-04-04T15:45:44.957Z</time></trkpt><trkpt lat="45.4147587" lon="7.6694684"><ele>549.0</ele><time>2026-04-04T15:45:45.958Z</time></trkpt><trkpt lat="45.4146856" lon="7.6695457"><ele>549.0</ele><time>2026-04-04T15:45:46.953Z</time></trkpt><trkpt lat="45.4146136" lon="7.6696168"><ele>549.0</ele><time>2026-04-04T15:45:47.957Z</time></trkpt><trkpt lat="45.4145398" lon="7.6696887"><ele>549.0</ele><time>2026-04-04T15:45:48.953Z</time></trkpt><trkpt lat="45.4144681" lon="7.6697647"><ele>546.6666666666666</ele><time>2026-04-04T15:45:50.039Z</time></trkpt><trkpt lat="45.414398" lon="7.669835"><ele>544.3333333333334</ele><time>2026-04-04T15:45:51.029Z</time></trkpt><trkpt lat="45.4143285" lon="7.6698997"><ele>542.0</ele><time>2026-04-04T15:45:52.026Z</time></trkpt><trkpt lat="45.4142584" lon="7.669964"><ele>539.6666666666667</ele><time>2026-04-04T15:45:52.982Z</time></trkpt><trkpt lat="45.4141933" lon="7.6700349"><ele>537.3333333333334</ele><time>2026-04-04T15:45:53.977Z</time></trkpt><trkpt lat="45.4141268" lon="7.6701008"><ele>535.0</ele><time>2026-04-04T15:45:54.953Z</time></trkpt><trkpt lat="45.4140652" lon="7.6701614"><ele>535.0</ele><time>2026-04-04T15:45:55.955Z</time></trkpt><trkpt lat="45.413998" lon="7.6702278"><ele>535.0</ele><time>2026-04-04T15:45:56.958Z</time></trkpt><trkpt lat="45.413933" lon="7.6702891"><ele>535.0</ele><time>2026-04-04T15:45:57.954Z</time></trkpt><trkpt lat="45.4138684" lon="7.6703475"><ele>535.0</ele><time>2026-04-04T15:45:58.951Z</time></trkpt><trkpt lat="45.4138089" lon="7.6704025"><ele>535.0</ele><time>2026-04-04T15:45:59.952Z</time></trkpt><trkpt lat="45.4137593" lon="7.6704625"><ele>535.0</ele><time>2026-04-04T15:46:01.034Z</time></trkpt><trkpt lat="45.4137038" lon="7.6705151"><ele>535.0</ele><time>2026-04-04T15:46:01.972Z</time></trkpt><trkpt lat="45.4136343" lon="7.6706657"><ele>533.8333333333334</ele><time>2026-04-04T15:46:03.963Z</time></trkpt><trkpt lat="45.4136083" lon="7.6707533"><ele>532.6666666666667</ele><time>2026-04-04T15:46:04.954Z</time></trkpt><trkpt lat="45.4135741" lon="7.6708469"><ele>531.5</ele><time>2026-04-04T15:46:05.962Z</time></trkpt><trkpt lat="45.4135274" lon="7.6709378"><ele>530.3333333333334</ele><time>2026-04-04T15:46:06.962Z</time></trkpt><trkpt lat="45.4134764" lon="7.6710247"><ele>529.1666666666666</ele><time>2026-04-04T15:46:07.962Z</time></trkpt><trkpt lat="45.4134275" lon="7.6711073"><ele>528.0</ele><time>2026-04-04T15:46:08.956Z</time></trkpt><trkpt lat="45.4133783" lon="7.6711936"><ele>527.8333333333334</ele><time>2026-04-04T15:46:09.956Z</time></trkpt><trkpt lat="45.413333" lon="7.6712746"><ele>527.6666666666666</ele><time>2026-04-04T15:46:11.031Z</time></trkpt><trkpt lat="45.4132841" lon="7.6713434"><ele>527.5</ele><time>2026-04-04T15:46:11.954Z</time></trkpt><trkpt lat="45.4132318" lon="7.6713974"><ele>527.3333333333333</ele><time>2026-04-04T15:46:12.97Z</time></trkpt><trkpt lat="45.4131378" lon="7.6715009"><ele>527.1666666666666</ele><time>2026-04-04T15:46:14.959Z</time></trkpt><trkpt lat="45.4130832" lon="7.671559"><ele>527.0</ele><time>2026-04-04T15:46:15.96Z</time></trkpt><trkpt lat="45.4130349" lon="7.6716343"><ele>525.8571428571429</ele><time>2026-04-04T15:46:16.963Z</time></trkpt><trkpt lat="45.4129838" lon="7.6717167"><ele>524.7142857142858</ele><time>2026-04-04T15:46:17.961Z</time></trkpt><trkpt lat="45.4129397" lon="7.6717974"><ele>523.5714285714286</ele><time>2026-04-04T15:46:18.962Z</time></trkpt><trkpt lat="45.4129011" lon="7.6718756"><ele>522.4285714285714</ele><time>2026-04-04T15:46:19.964Z</time></trkpt><trkpt lat="45.4128658" lon="7.6719577"><ele>521.2857142857142</ele><time>2026-04-04T15:46:20.968Z</time></trkpt><trkpt lat="45.4128345" lon="7.6720385"><ele>520.1428571428571</ele><time>2026-04-04T15:46:21.985Z</time></trkpt><trkpt lat="45.412798" lon="7.6721144"><ele>519.0</ele><time>2026-04-04T15:46:22.953Z</time></trkpt><trkpt lat="45.4127605" lon="7.6721866"><ele>518.1428571428571</ele><time>2026-04-04T15:46:23.946Z</time></trkpt><trkpt lat="45.4127203" lon="7.6722638"><ele>517.2857142857142</ele><time>2026-04-04T15:46:24.956Z</time></trkpt><trkpt lat="45.4126809" lon="7.672342"><ele>516.4285714285714</ele><time>2026-04-04T15:46:25.956Z</time></trkpt><trkpt lat="45.4126438" lon="7.6724152"><ele>515.5714285714286</ele><time>2026-04-04T15:46:26.964Z</time></trkpt><trkpt lat="45.412602" lon="7.6724881"><ele>514.7142857142858</ele><time>2026-04-04T15:46:27.957Z</time></trkpt><trkpt lat="45.4125662" lon="7.6725658"><ele>513.8571428571429</ele><time>2026-04-04T15:46:28.961Z</time></trkpt><trkpt lat="45.4125296" lon="7.6726409"><ele>513.0</ele><time>2026-04-04T15:46:29.959Z</time></trkpt><trkpt lat="45.412497" lon="7.6727188"><ele>512.3333333333334</ele><time>2026-04-04T15:46:30.961Z</time></trkpt><trkpt lat="45.4124698" lon="7.672812"><ele>511.66666666666663</ele><time>2026-04-04T15:46:31.954Z</time></trkpt><trkpt lat="45.412439" lon="7.672904"><ele>511.0</ele><time>2026-04-04T15:46:32.96Z</time></trkpt><trkpt lat="45.412411" lon="7.6729935"><ele>510.3333333333333</ele><time>2026-04-04T15:46:33.963Z</time></trkpt><trkpt lat="45.4123701" lon="7.6730682"><ele>509.66666666666663</ele><time>2026-04-04T15:46:35.032Z</time></trkpt><trkpt lat="45.412306" lon="7.6732272"><ele>509.0</ele><time>2026-04-04T15:46:37.028Z</time></trkpt><trkpt lat="45.4122408" lon="7.6733552"><ele>508.3333333333333</ele><time>2026-04-04T15:46:38.949Z</time></trkpt><trkpt lat="45.4121319" lon="7.6734267"><ele>507.66666666666663</ele><time>2026-04-04T15:46:41.032Z</time></trkpt><trkpt lat="45.4120144" lon="7.6734661"><ele>507.0</ele><time>2026-04-04T15:46:42.954Z</time></trkpt><trkpt lat="45.4119575" lon="7.6735057"><ele>506.33333333333337</ele><time>2026-04-04T15:46:43.959Z</time></trkpt><trkpt lat="45.4119026" lon="7.6735516"><ele>505.6666666666667</ele><time>2026-04-04T15:46:44.969Z</time></trkpt><trkpt lat="45.411852" lon="7.6736189"><ele>505.0</ele><time>2026-04-04T15:46:45.954Z</time></trkpt><trkpt lat="45.4118086" lon="7.6736857"><ele>504.00000000000006</ele><time>2026-04-04T15:46:46.958Z</time></trkpt><trkpt lat="45.4117356" lon="7.6738325"><ele>503.0</ele><time>2026-04-04T15:46:48.957Z</time></trkpt><trkpt lat="45.4117001" lon="7.6739152"><ele>502.0</ele><time>2026-04-04T15:46:50.028Z</time></trkpt><trkpt lat="45.4116691" lon="7.6739983"><ele>501.0</ele><time>2026-04-04T15:46:51.019Z</time></trkpt><trkpt lat="45.4116488" lon="7.6740846"><ele>500.00000000000006</ele><time>2026-04-04T15:46:52.014Z</time></trkpt><trkpt lat="45.411618" lon="7.6742013"><ele>499.0</ele><time>2026-04-04T15:46:53.96Z</time></trkpt><trkpt lat="45.4115627" lon="7.6742624"><ele>499.00000000000006</ele><time>2026-04-04T15:46:56.962Z</time></trkpt><trkpt lat="45.4114941" lon="7.6743021"><ele>499.0</ele><time>2026-04-04T15:46:59.956Z</time></trkpt><trkpt lat="45.4114296" lon="7.6743379"><ele>499.00000000000006</ele><time>2026-04-04T15:47:02.952Z</time></trkpt><trkpt lat="45.4113662" lon="7.6742974"><ele>499.00000000000006</ele><time>2026-04-04T15:47:05.033Z</time></trkpt><trkpt lat="45.411303" lon="7.6742535"><ele>499.0</ele><time>2026-04-04T15:47:07.034Z</time></trkpt><trkpt lat="45.4112367" lon="7.674182"><ele>499.00000000000006</ele><time>2026-04-04T15:47:09.952Z</time></trkpt><trkpt lat="45.4111704" lon="7.6741634"><ele>499.00000000000006</ele><time>2026-04-04T15:47:11.955Z</time></trkpt><trkpt lat="45.4110889" lon="7.6741039"><ele>498.00000000000006</ele><time>2026-04-04T15:47:14.996Z</time></trkpt><trkpt lat="45.4109938" lon="7.6741115"><ele>497.0</ele><time>2026-04-04T15:47:17.954Z</time></trkpt><trkpt lat="45.410926" lon="7.6741525"><ele>496.0</ele><time>2026-04-04T15:47:19.955Z</time></trkpt><trkpt lat="45.4108495" lon="7.6741673"><ele>495.0</ele><time>2026-04-04T15:47:22.016Z</time></trkpt><trkpt lat="45.4107652" lon="7.6741731"><ele>494.00000000000006</ele><time>2026-04-04T15:47:23.957Z</time></trkpt><trkpt lat="45.4106974" lon="7.6741504"><ele>493.0</ele><time>2026-04-04T15:47:24.991Z</time></trkpt><trkpt lat="45.4106032" lon="7.6741253"><ele>493.0</ele><time>2026-04-04T15:47:25.955Z</time></trkpt><trkpt lat="45.410497" lon="7.6741074"><ele>492.99999999999994</ele><time>2026-04-04T15:47:26.95Z</time></trkpt><trkpt lat="45.4104204" lon="7.6740787"><ele>492.99999999999994</ele><time>2026-04-04T15:47:27.957Z</time></trkpt><trkpt lat="45.4103412" lon="7.6740378"><ele>493.0</ele><time>2026-04-04T15:47:28.949Z</time></trkpt><trkpt lat="45.4102473" lon="7.6739624"><ele>493.0</ele><time>2026-04-04T15:47:30.041Z</time></trkpt><trkpt lat="45.4101391" lon="7.6738693"><ele>492.79999999999995</ele><time>2026-04-04T15:47:31.031Z</time></trkpt><trkpt lat="45.4100326" lon="7.6737796"><ele>492.59999999999997</ele><time>2026-04-04T15:47:32.031Z</time></trkpt><trkpt lat="45.4099487" lon="7.6736963"><ele>492.40000000000003</ele><time>2026-04-04T15:47:32.949Z</time></trkpt><trkpt lat="45.4098916" lon="7.6736215"><ele>492.20000000000005</ele><time>2026-04-04T15:47:33.96Z</time></trkpt><trkpt lat="45.4098505" lon="7.6735405"><ele>492.0</ele><time>2026-04-04T15:47:34.965Z</time></trkpt><trkpt lat="45.4098024" lon="7.6734448"><ele>492.0</ele><time>2026-04-04T15:47:36.026Z</time></trkpt><trkpt lat="45.4097499" lon="7.6733472"><ele>492.0</ele><time>2026-04-04T15:47:36.99Z</time></trkpt><trkpt lat="45.4097087" lon="7.6732613"><ele>492.0</ele><time>2026-04-04T15:47:37.956Z</time></trkpt><trkpt lat="45.409671" lon="7.6731141"><ele>492.0</ele><time>2026-04-04T15:47:39.987Z</time></trkpt><trkpt lat="45.409607" lon="7.6730497"><ele>492.0</ele><time>2026-04-04T15:47:42.955Z</time></trkpt><trkpt lat="45.40952" lon="7.6730787"><ele>492.0</ele><time>2026-04-04T15:47:45.04Z</time></trkpt><trkpt lat="45.4094398" lon="7.6731035"><ele>492.3333333333333</ele><time>2026-04-04T15:47:46.042Z</time></trkpt><trkpt lat="45.4093686" lon="7.6731279"><ele>492.66666666666663</ele><time>2026-04-04T15:47:46.953Z</time></trkpt><trkpt lat="45.4092897" lon="7.6731558"><ele>493.0</ele><time>2026-04-04T15:47:47.956Z</time></trkpt><trkpt lat="45.4091867" lon="7.6732017"><ele>493.3333333333333</ele><time>2026-04-04T15:47:49.959Z</time></trkpt><trkpt lat="45.4091212" lon="7.6731754"><ele>493.66666666666663</ele><time>2026-04-04T15:47:51.956Z</time></trkpt><trkpt lat="45.4091296" lon="7.6730525"><ele>494.0</ele><time>2026-04-04T15:47:56.027Z</time></trkpt><trkpt lat="45.4091737" lon="7.6729672"><ele>493.99999999999994</ele><time>2026-04-04T15:47:57.951Z</time></trkpt><trkpt lat="45.4091751" lon="7.6728732"><ele>494.0</ele><time>2026-04-04T15:48:00.953Z</time></trkpt><trkpt lat="45.4091305" lon="7.6730251"><ele>494.0</ele><time>2026-04-04T15:48:06.05Z</time></trkpt><trkpt lat="45.4090846" lon="7.6730956"><ele>494.0</ele><time>2026-04-04T15:48:07.024Z</time></trkpt><trkpt lat="45.4090416" lon="7.6731756"><ele>493.99999999999994</ele><time>2026-04-04T15:48:07.951Z</time></trkpt><trkpt lat="45.4089998" lon="7.6732534"><ele>494.0</ele><time>2026-04-04T15:48:08.95Z</time></trkpt><trkpt lat="45.4089388" lon="7.6733288"><ele>493.99999999999994</ele><time>2026-04-04T15:48:09.955Z</time></trkpt><trkpt lat="45.4088766" lon="7.6733853"><ele>494.0</ele><time>2026-04-04T15:48:10.958Z</time></trkpt><trkpt lat="45.4088023" lon="7.6734507"><ele>494.0</ele><time>2026-04-04T15:48:12.947Z</time></trkpt><trkpt lat="45.4087303" lon="7.6734376"><ele>494.0</ele><time>2026-04-04T15:48:14.958Z</time></trkpt><trkpt lat="45.4086124" lon="7.6734137"><ele>493.99999999999994</ele><time>2026-04-04T15:48:16.957Z</time></trkpt><trkpt lat="45.4085335" lon="7.6734017"><ele>494.0</ele><time>2026-04-04T15:48:17.953Z</time></trkpt><trkpt lat="45.4084525" lon="7.6733929"><ele>496.6</ele><time>2026-04-04T15:48:18.952Z</time></trkpt><trkpt lat="45.4083668" lon="7.6733671"><ele>499.2</ele><time>2026-04-04T15:48:19.95Z</time></trkpt><trkpt lat="45.4082799" lon="7.6733537"><ele>501.80000000000007</ele><time>2026-04-04T15:48:20.958Z</time></trkpt><trkpt lat="45.4081937" lon="7.673357"><ele>504.40000000000003</ele><time>2026-04-04T15:48:21.962Z</time></trkpt><trkpt lat="45.4080988" lon="7.6733907"><ele>507.0</ele><time>2026-04-04T15:48:22.943Z</time></trkpt><trkpt lat="45.408009" lon="7.6734366"><ele>507.0</ele><time>2026-04-04T15:48:24.009Z</time></trkpt><trkpt lat="45.4079355" lon="7.6734764"><ele>507.0</ele><time>2026-04-04T15:48:24.96Z</time></trkpt><trkpt lat="45.4078699" lon="7.6734974"><ele>507.0</ele><time>2026-04-04T15:48:25.957Z</time></trkpt><trkpt lat="45.4077622" lon="7.6735298"><ele>507.0</ele><time>2026-04-04T15:48:27.952Z</time></trkpt><trkpt lat="45.4076882" lon="7.6734799"><ele>507.0</ele><time>2026-04-04T15:48:29.959Z</time></trkpt><trkpt lat="45.4076257" lon="7.6733998"><ele>507.0</ele><time>2026-04-04T15:48:30.953Z</time></trkpt><trkpt lat="45.40758" lon="7.6733164"><ele>507.0</ele><time>2026-04-04T15:48:31.956Z</time></trkpt><trkpt lat="45.4075257" lon="7.6732147"><ele>507.0</ele><time>2026-04-04T15:48:33.961Z</time></trkpt><trkpt lat="45.4074692" lon="7.6730817"><ele>507.0</ele><time>2026-04-04T15:48:35.958Z</time></trkpt><trkpt lat="45.4074352" lon="7.6729865"><ele>507.0</ele><time>2026-04-04T15:48:36.958Z</time></trkpt><trkpt lat="45.4074054" lon="7.672884"><ele>507.0</ele><time>2026-04-04T15:48:37.948Z</time></trkpt><trkpt lat="45.4073709" lon="7.672787"><ele>507.0</ele><time>2026-04-04T15:48:38.955Z</time></trkpt><trkpt lat="45.4073458" lon="7.6726824"><ele>509.1666666666667</ele><time>2026-04-04T15:48:39.952Z</time></trkpt><trkpt lat="45.4073203" lon="7.6725858"><ele>511.33333333333337</ele><time>2026-04-04T15:48:40.955Z</time></trkpt><trkpt lat="45.4072958" lon="7.6724962"><ele>513.5</ele><time>2026-04-04T15:48:41.953Z</time></trkpt><trkpt lat="45.4072583" lon="7.6724177"><ele>515.6666666666667</ele><time>2026-04-04T15:48:42.959Z</time></trkpt><trkpt lat="45.407201" lon="7.6723601"><ele>517.8333333333334</ele><time>2026-04-04T15:48:43.954Z</time></trkpt><trkpt lat="45.4070784" lon="7.672298"><ele>520.0</ele><time>2026-04-04T15:48:46.046Z</time></trkpt><trkpt lat="45.4070092" lon="7.6722724"><ele>518.8333333333334</ele><time>2026-04-04T15:48:47.029Z</time></trkpt><trkpt lat="45.4069461" lon="7.6722423"><ele>517.6666666666667</ele><time>2026-04-04T15:48:47.957Z</time></trkpt><trkpt lat="45.4068826" lon="7.6721962"><ele>516.5</ele><time>2026-04-04T15:48:48.972Z</time></trkpt><trkpt lat="45.4068238" lon="7.6721483"><ele>515.3333333333334</ele><time>2026-04-04T15:48:49.965Z</time></trkpt><trkpt lat="45.4067693" lon="7.6720972"><ele>514.1666666666666</ele><time>2026-04-04T15:48:51.033Z</time></trkpt><trkpt lat="45.4066786" lon="7.671976"><ele>513.0</ele><time>2026-04-04T15:48:52.952Z</time></trkpt><trkpt lat="45.4066333" lon="7.6719067"><ele>513.0</ele><time>2026-04-04T15:48:53.953Z</time></trkpt><trkpt lat="45.4065884" lon="7.6718385"><ele>513.0</ele><time>2026-04-04T15:48:55.053Z</time></trkpt><trkpt lat="45.4065434" lon="7.6717712"><ele>513.0</ele><time>2026-04-04T15:48:55.957Z</time></trkpt><trkpt lat="45.4064741" lon="7.6716417"><ele>513.0</ele><time>2026-04-04T15:48:57.949Z</time></trkpt><trkpt lat="45.4064257" lon="7.6715432"><ele>513.0</ele><time>2026-04-04T15:48:59.963Z</time></trkpt><trkpt lat="45.4063677" lon="7.6714821"><ele>513.0</ele><time>2026-04-04T15:49:01.958Z</time></trkpt><trkpt lat="45.4062524" lon="7.6714208"><ele>510.75</ele><time>2026-04-04T15:49:04.029Z</time></trkpt><trkpt lat="45.4061331" lon="7.6713746"><ele>508.5</ele><time>2026-04-04T15:49:04.988Z</time></trkpt><trkpt lat="45.4060055" lon="7.6713307"><ele>506.25</ele><time>2026-04-04T15:49:06.033Z</time></trkpt><trkpt lat="45.4058751" lon="7.6712767"><ele>504.0</ele><time>2026-04-04T15:49:06.962Z</time></trkpt><trkpt lat="45.4057561" lon="7.6712369"><ele>504.0</ele><time>2026-04-04T15:49:07.961Z</time></trkpt><trkpt lat="45.40565" lon="7.6712051"><ele>504.0</ele><time>2026-04-04T15:49:08.959Z</time></trkpt><trkpt lat="45.4055435" lon="7.6711881"><ele>504.0</ele><time>2026-04-04T15:49:09.952Z</time></trkpt><trkpt lat="45.405451" lon="7.6711658"><ele>504.0</ele><time>2026-04-04T15:49:10.958Z</time></trkpt><trkpt lat="45.4053656" lon="7.6711411"><ele>504.0</ele><time>2026-04-04T15:49:11.992Z</time></trkpt><trkpt lat="45.4052887" lon="7.6711265"><ele>504.1428571428571</ele><time>2026-04-04T15:49:12.954Z</time></trkpt><trkpt lat="45.4052195" lon="7.6711151"><ele>504.2857142857143</ele><time>2026-04-04T15:49:13.959Z</time></trkpt><trkpt lat="45.4051562" lon="7.6710986"><ele>504.42857142857144</ele><time>2026-04-04T15:49:14.96Z</time></trkpt><trkpt lat="45.4050958" lon="7.6710697"><ele>504.57142857142856</ele><time>2026-04-04T15:49:15.964Z</time></trkpt><trkpt lat="45.4050321" lon="7.6710269"><ele>504.71428571428567</ele><time>2026-04-04T15:49:16.96Z</time></trkpt><trkpt lat="45.4049708" lon="7.6709822"><ele>504.85714285714283</ele><time>2026-04-04T15:49:17.962Z</time></trkpt><trkpt lat="45.4049194" lon="7.6709244"><ele>505.0</ele><time>2026-04-04T15:49:18.957Z</time></trkpt><trkpt lat="45.4048733" lon="7.6708564"><ele>505.00000000000006</ele><time>2026-04-04T15:49:19.959Z</time></trkpt><trkpt lat="45.4048365" lon="7.6707781"><ele>505.0</ele><time>2026-04-04T15:49:20.981Z</time></trkpt><trkpt lat="45.4048203" lon="7.6706892"><ele>505.0</ele><time>2026-04-04T15:49:21.963Z</time></trkpt><trkpt lat="45.4048605" lon="7.6705621"><ele>505.0</ele><time>2026-04-04T15:49:23.963Z</time></trkpt><trkpt lat="45.4049522" lon="7.6704544"><ele>505.00000000000006</ele><time>2026-04-04T15:49:25.954Z</time></trkpt><trkpt lat="45.4050367" lon="7.6703762"><ele>505.0</ele><time>2026-04-04T15:49:27.031Z</time></trkpt><trkpt lat="45.4051351" lon="7.6703035"><ele>504.6</ele><time>2026-04-04T15:49:27.952Z</time></trkpt><trkpt lat="45.4052191" lon="7.670231"><ele>504.2</ele><time>2026-04-04T15:49:28.95Z</time></trkpt><trkpt lat="45.4052843" lon="7.6701502"><ele>503.79999999999995</ele><time>2026-04-04T15:49:29.984Z</time></trkpt><trkpt lat="45.4053451" lon="7.6700908"><ele>503.4</ele><time>2026-04-04T15:49:30.943Z</time></trkpt><trkpt lat="45.4054551" lon="7.6700375"><ele>503.0</ele><time>2026-04-04T15:49:32.949Z</time></trkpt><trkpt lat="45.4055287" lon="7.6700154"><ele>502.99999999999994</ele><time>2026-04-04T15:49:34.969Z</time></trkpt><trkpt lat="45.4056112" lon="7.6699885"><ele>503.0</ele><time>2026-04-04T15:49:36.966Z</time></trkpt><trkpt lat="45.4056751" lon="7.6699803"><ele>503.0</ele><time>2026-04-04T15:49:38.975Z</time></trkpt><trkpt lat="45.4056035" lon="7.6699754"><ele>503.0</ele><time>2026-04-04T15:49:43.972Z</time></trkpt><trkpt lat="45.4055333" lon="7.669999"><ele>502.99999999999994</ele><time>2026-04-04T15:49:45.035Z</time></trkpt><trkpt lat="45.4054113" lon="7.6700299"><ele>503.0</ele><time>2026-04-04T15:49:46.032Z</time></trkpt><trkpt lat="45.4052747" lon="7.6700548"><ele>502.0</ele><time>2026-04-04T15:49:47.039Z</time></trkpt><trkpt lat="45.4051706" lon="7.6700875"><ele>500.99999999999994</ele><time>2026-04-04T15:49:47.965Z</time></trkpt><trkpt lat="45.4050799" lon="7.6701134"><ele>499.99999999999994</ele><time>2026-04-04T15:49:48.97Z</time></trkpt><trkpt lat="45.4049901" lon="7.6701275"><ele>499.0</ele><time>2026-04-04T15:49:49.967Z</time></trkpt><trkpt lat="45.4049063" lon="7.6701231"><ele>498.0</ele><time>2026-04-04T15:49:50.972Z</time></trkpt><trkpt lat="45.4048234" lon="7.6701181"><ele>498.0</ele><time>2026-04-04T15:49:51.97Z</time></trkpt><trkpt lat="45.4047486" lon="7.6701089"><ele>497.99999999999994</ele><time>2026-04-04T15:49:52.972Z</time></trkpt><trkpt lat="45.4046846" lon="7.6700973"><ele>498.0</ele><time>2026-04-04T15:49:53.967Z</time></trkpt><trkpt lat="45.4046142" lon="7.6700317"><ele>498.0</ele><time>2026-04-04T15:49:55.965Z</time></trkpt><trkpt lat="45.4046116" lon="7.6699295"><ele>497.99999999999994</ele><time>2026-04-04T15:49:57.035Z</time></trkpt><trkpt lat="45.4046185" lon="7.6698239"><ele>498.0</ele><time>2026-04-04T15:49:57.948Z</time></trkpt><trkpt lat="45.4046114" lon="7.6697235"><ele>498.0</ele><time>2026-04-04T15:49:58.959Z</time></trkpt><trkpt lat="45.4045891" lon="7.6696184"><ele>496.6666666666667</ele><time>2026-04-04T15:49:59.957Z</time></trkpt><trkpt lat="45.4045534" lon="7.6695339"><ele>495.33333333333337</ele><time>2026-04-04T15:50:01.03Z</time></trkpt><trkpt lat="45.4045281" lon="7.669433"><ele>494.0</ele><time>2026-04-04T15:50:02.036Z</time></trkpt><trkpt lat="45.4044966" lon="7.6693427"><ele>492.6666666666667</ele><time>2026-04-04T15:50:02.956Z</time></trkpt><trkpt lat="45.4044429" lon="7.6692177"><ele>491.33333333333337</ele><time>2026-04-04T15:50:04.96Z</time></trkpt><trkpt lat="45.4043848" lon="7.6691754"><ele>490.0</ele><time>2026-04-04T15:50:06.953Z</time></trkpt><trkpt lat="45.4042711" lon="7.6691449"><ele>489.50000000000006</ele><time>2026-04-04T15:50:09.032Z</time></trkpt><trkpt lat="45.4042044" lon="7.6691266"><ele>489.0</ele><time>2026-04-04T15:50:10.029Z</time></trkpt><trkpt lat="45.4041434" lon="7.6690905"><ele>488.5</ele><time>2026-04-04T15:50:11.034Z</time></trkpt><trkpt lat="45.4040559" lon="7.6689904"><ele>488.0</ele><time>2026-04-04T15:50:12.96Z</time></trkpt><trkpt lat="45.4039901" lon="7.668874"><ele>487.50000000000006</ele><time>2026-04-04T15:50:14.959Z</time></trkpt><trkpt lat="45.4039428" lon="7.6687522"><ele>487.0</ele><time>2026-04-04T15:50:16.98Z</time></trkpt><trkpt lat="45.4039082" lon="7.6686028"><ele>485.20000000000005</ele><time>2026-04-04T15:50:18.953Z</time></trkpt><trkpt lat="45.4039006" lon="7.6684561"><ele>483.40000000000003</ele><time>2026-04-04T15:50:20.957Z</time></trkpt><trkpt lat="45.4039141" lon="7.6682984"><ele>481.59999999999997</ele><time>2026-04-04T15:50:22.955Z</time></trkpt><trkpt lat="45.4039116" lon="7.6681544"><ele>479.79999999999995</ele><time>2026-04-04T15:50:24.955Z</time></trkpt><trkpt lat="45.403885" lon="7.6680047"><ele>478.0</ele><time>2026-04-04T15:50:26.958Z</time></trkpt><trkpt lat="45.4038619" lon="7.6678302"><ele>480.5</ele><time>2026-04-04T15:50:28.957Z</time></trkpt><trkpt lat="45.403843" lon="7.6676587"><ele>483.0</ele><time>2026-04-04T15:50:30.958Z</time></trkpt><trkpt lat="45.4037904" lon="7.6675311"><ele>485.5</ele><time>2026-04-04T15:50:32.955Z</time></trkpt><trkpt lat="45.4037018" lon="7.6674067"><ele>488.0</ele><time>2026-04-04T15:50:34.95Z</time></trkpt><trkpt lat="45.4036276" lon="7.6672918"><ele>488.0</ele><time>2026-04-04T15:50:36.959Z</time></trkpt><trkpt lat="45.403587" lon="7.667172"><ele>487.99999999999994</ele><time>2026-04-04T15:50:38.958Z</time></trkpt><trkpt lat="45.4035833" lon="7.6670366"><ele>487.99999999999994</ele><time>2026-04-04T15:50:40.952Z</time></trkpt><trkpt lat="45.4036095" lon="7.6669003"><ele>488.0</ele><time>2026-04-04T15:50:42.955Z</time></trkpt><trkpt lat="45.4036125" lon="7.6667993"><ele>488.0</ele><time>2026-04-04T15:50:44.953Z</time></trkpt><trkpt lat="45.403573" lon="7.6666791"><ele>484.16666666666663</ele><time>2026-04-04T15:50:47.955Z</time></trkpt><trkpt lat="45.4035141" lon="7.6665717"><ele>480.3333333333333</ele><time>2026-04-04T15:50:50.957Z</time></trkpt><trkpt lat="45.4034608" lon="7.666508"><ele>476.5</ele><time>2026-04-04T15:50:52.955Z</time></trkpt><trkpt lat="45.4033955" lon="7.6664382"><ele>472.66666666666663</ele><time>2026-04-04T15:50:54.945Z</time></trkpt><trkpt lat="45.4033395" lon="7.6663671"><ele>468.8333333333333</ele><time>2026-04-04T15:50:56.952Z</time></trkpt><trkpt lat="45.4032807" lon="7.6663321"><ele>465.0</ele><time>2026-04-04T15:50:58.968Z</time></trkpt><trkpt lat="45.4031854" lon="7.6662862"><ele>465.0</ele><time>2026-04-04T15:51:00.951Z</time></trkpt><trkpt lat="45.4030955" lon="7.6662523"><ele>465.0</ele><time>2026-04-04T15:51:02.956Z</time></trkpt><trkpt lat="45.4030137" lon="7.666198"><ele>465.0</ele><time>2026-04-04T15:51:04.958Z</time></trkpt><trkpt lat="45.4029437" lon="7.6661549"><ele>465.0</ele><time>2026-04-04T15:51:06.952Z</time></trkpt><trkpt lat="45.4028722" lon="7.6661101"><ele>465.0</ele><time>2026-04-04T15:51:09.956Z</time></trkpt><trkpt lat="45.4027977" lon="7.666068"><ele>465.0</ele><time>2026-04-04T15:51:12.947Z</time></trkpt><trkpt lat="45.4028775" lon="7.665985"><ele>461.6</ele><time>2026-04-04T15:51:17.951Z</time></trkpt><trkpt lat="45.402975" lon="7.6659827"><ele>458.2</ele><time>2026-04-04T15:51:18.955Z</time></trkpt><trkpt lat="45.4030831" lon="7.6659831"><ele>454.79999999999995</ele><time>2026-04-04T15:51:19.95Z</time></trkpt><trkpt lat="45.4031811" lon="7.6659898"><ele>451.4</ele><time>2026-04-04T15:51:20.956Z</time></trkpt><trkpt lat="45.4032461" lon="7.6659806"><ele>448.0</ele><time>2026-04-04T15:51:21.944Z</time></trkpt><trkpt lat="45.4033367" lon="7.6659069"><ele>446.6666666666667</ele><time>2026-04-04T15:51:23.953Z</time></trkpt><trkpt lat="45.4033623" lon="7.6658"><ele>445.33333333333337</ele><time>2026-04-04T15:51:24.954Z</time></trkpt><trkpt lat="45.403389" lon="7.6656809"><ele>444.0</ele><time>2026-04-04T15:51:25.949Z</time></trkpt><trkpt lat="45.4034244" lon="7.6655672"><ele>442.66666666666663</ele><time>2026-04-04T15:51:26.947Z</time></trkpt><trkpt lat="45.4034691" lon="7.6654804"><ele>441.3333333333333</ele><time>2026-04-04T15:51:27.95Z</time></trkpt><trkpt lat="45.4035205" lon="7.6653965"><ele>440.0</ele><time>2026-04-04T15:51:28.96Z</time></trkpt><trkpt lat="45.4035728" lon="7.6653413"><ele>439.99999999999994</ele><time>2026-04-04T15:51:29.946Z</time></trkpt><trkpt lat="45.4036368" lon="7.6653271"><ele>440.0</ele><time>2026-04-04T15:51:30.954Z</time></trkpt><trkpt lat="45.4037059" lon="7.6653224"><ele>440.0</ele><time>2026-04-04T15:51:31.946Z</time></trkpt><trkpt lat="45.4037877" lon="7.665252"><ele>440.0</ele><time>2026-04-04T15:51:33.955Z</time></trkpt><trkpt lat="45.4038212" lon="7.6650957"><ele>439.99999999999994</ele><time>2026-04-04T15:51:35.949Z</time></trkpt><trkpt lat="45.4038298" lon="7.664981"><ele>440.0</ele><time>2026-04-04T15:51:36.956Z</time></trkpt><trkpt lat="45.403804" lon="7.6648275"><ele>440.75</ele><time>2026-04-04T15:51:37.957Z</time></trkpt><trkpt lat="45.4037482" lon="7.6646388"><ele>441.5</ele><time>2026-04-04T15:51:38.94Z</time></trkpt><trkpt lat="45.4037037" lon="7.6644654"><ele>442.25</ele><time>2026-04-04T15:51:39.953Z</time></trkpt><trkpt lat="45.4036663" lon="7.6643149"><ele>443.0</ele><time>2026-04-04T15:51:40.949Z</time></trkpt><trkpt lat="45.4036547" lon="7.6641857"><ele>442.99999999999994</ele><time>2026-04-04T15:51:41.95Z</time></trkpt><trkpt lat="45.4036321" lon="7.6640593"><ele>443.0</ele><time>2026-04-04T15:51:42.95Z</time></trkpt><trkpt lat="45.4036175" lon="7.6639459"><ele>443.0</ele><time>2026-04-04T15:51:43.951Z</time></trkpt><trkpt lat="45.403608" lon="7.6638355"><ele>443.0</ele><time>2026-04-04T15:51:44.949Z</time></trkpt><trkpt lat="45.4035991" lon="7.6637264"><ele>442.99999999999994</ele><time>2026-04-04T15:51:45.954Z</time></trkpt><trkpt lat="45.4035944" lon="7.6636132"><ele>443.0</ele><time>2026-04-04T15:51:46.96Z</time></trkpt><trkpt lat="45.4035829" lon="7.6635037"><ele>441.8333333333333</ele><time>2026-04-04T15:51:47.94Z</time></trkpt><trkpt lat="45.4035635" lon="7.6633934"><ele>440.66666666666663</ele><time>2026-04-04T15:51:48.954Z</time></trkpt><trkpt lat="45.4035492" lon="7.6632836"><ele>439.5</ele><time>2026-04-04T15:51:49.948Z</time></trkpt><trkpt lat="45.4035302" lon="7.6631745"><ele>438.33333333333337</ele><time>2026-04-04T15:51:50.949Z</time></trkpt><trkpt lat="45.4035083" lon="7.6630588"><ele>437.1666666666667</ele><time>2026-04-04T15:51:51.94Z</time></trkpt><trkpt lat="45.4035036" lon="7.6629492"><ele>436.0</ele><time>2026-04-04T15:51:52.941Z</time></trkpt><trkpt lat="45.4035014" lon="7.6628419"><ele>433.8</ele><time>2026-04-04T15:51:53.961Z</time></trkpt><trkpt lat="45.4034844" lon="7.6627482"><ele>431.6</ele><time>2026-04-04T15:51:54.949Z</time></trkpt><trkpt lat="45.4034316" lon="7.6625786"><ele>429.4</ele><time>2026-04-04T15:51:56.95Z</time></trkpt><trkpt lat="45.4033422" lon="7.6624407"><ele>427.2</ele><time>2026-04-04T15:51:58.946Z</time></trkpt><trkpt lat="45.4032853" lon="7.6623698"><ele>425.0</ele><time>2026-04-04T15:51:59.955Z</time></trkpt><trkpt lat="45.4032225" lon="7.6622925"><ele>424.99999999999994</ele><time>2026-04-04T15:52:00.954Z</time></trkpt><trkpt lat="45.4031549" lon="7.6622129"><ele>425.0</ele><time>2026-04-04T15:52:01.95Z</time></trkpt><trkpt lat="45.4030984" lon="7.6621348"><ele>425.0</ele><time>2026-04-04T15:52:02.949Z</time></trkpt><trkpt lat="45.4030291" lon="7.6620583"><ele>425.0</ele><time>2026-04-04T15:52:03.948Z</time></trkpt><trkpt lat="45.4029664" lon="7.6619827"><ele>424.99999999999994</ele><time>2026-04-04T15:52:04.956Z</time></trkpt><trkpt lat="45.4029072" lon="7.6619079"><ele>425.0</ele><time>2026-04-04T15:52:05.94Z</time></trkpt><trkpt lat="45.4028538" lon="7.6618301"><ele>425.99999999999994</ele><time>2026-04-04T15:52:06.955Z</time></trkpt><trkpt lat="45.4028033" lon="7.6617539"><ele>427.0</ele><time>2026-04-04T15:52:07.959Z</time></trkpt><trkpt lat="45.402753" lon="7.6616706"><ele>428.0</ele><time>2026-04-04T15:52:08.949Z</time></trkpt><trkpt lat="45.4027086" lon="7.6615865"><ele>429.0</ele><time>2026-04-04T15:52:09.958Z</time></trkpt><trkpt lat="45.4026612" lon="7.6614951"><ele>429.99999999999994</ele><time>2026-04-04T15:52:10.954Z</time></trkpt><trkpt lat="45.4026116" lon="7.6613937"><ele>431.0</ele><time>2026-04-04T15:52:11.955Z</time></trkpt><trkpt lat="45.4025701" lon="7.6612947"><ele>430.99999999999994</ele><time>2026-04-04T15:52:12.949Z</time></trkpt><trkpt lat="45.4025254" lon="7.6611931"><ele>431.0</ele><time>2026-04-04T15:52:13.956Z</time></trkpt><trkpt lat="45.402494" lon="7.6610943"><ele>431.0</ele><time>2026-04-04T15:52:14.957Z</time></trkpt><trkpt lat="45.4024609" lon="7.6609872"><ele>431.0</ele><time>2026-04-04T15:52:15.95Z</time></trkpt><trkpt lat="45.4024197" lon="7.6608809"><ele>430.99999999999994</ele><time>2026-04-04T15:52:16.955Z</time></trkpt><trkpt lat="45.4023747" lon="7.6607815"><ele>431.0</ele><time>2026-04-04T15:52:17.954Z</time></trkpt><trkpt lat="45.402329" lon="7.6606831"><ele>432.16666666666663</ele><time>2026-04-04T15:52:18.949Z</time></trkpt><trkpt lat="45.4022866" lon="7.6605902"><ele>433.3333333333333</ele><time>2026-04-04T15:52:19.956Z</time></trkpt><trkpt lat="45.402247" lon="7.6604986"><ele>434.5</ele><time>2026-04-04T15:52:20.955Z</time></trkpt><trkpt lat="45.4021961" lon="7.6604055"><ele>435.66666666666663</ele><time>2026-04-04T15:52:21.949Z</time></trkpt><trkpt lat="45.4021356" lon="7.660325"><ele>436.8333333333333</ele><time>2026-04-04T15:52:22.958Z</time></trkpt><trkpt lat="45.4020732" lon="7.660245"><ele>438.0</ele><time>2026-04-04T15:52:23.959Z</time></trkpt><trkpt lat="45.4020096" lon="7.6601734"><ele>434.2857142857143</ele><time>2026-04-04T15:52:24.957Z</time></trkpt><trkpt lat="45.4019513" lon="7.6601164"><ele>430.57142857142856</ele><time>2026-04-04T15:52:25.953Z</time></trkpt><trkpt lat="45.4018882" lon="7.6600644"><ele>426.85714285714283</ele><time>2026-04-04T15:52:26.961Z</time></trkpt><trkpt lat="45.4018324" lon="7.6599966"><ele>423.1428571428571</ele><time>2026-04-04T15:52:27.95Z</time></trkpt><trkpt lat="45.4017819" lon="7.6599266"><ele>419.42857142857144</ele><time>2026-04-04T15:52:28.94Z</time></trkpt><trkpt lat="45.401733" lon="7.6598509"><ele>415.71428571428567</ele><time>2026-04-04T15:52:29.957Z</time></trkpt><trkpt lat="45.4016792" lon="7.6597677"><ele>412.0</ele><time>2026-04-04T15:52:30.963Z</time></trkpt><trkpt lat="45.4016269" lon="7.6596828"><ele>412.00000000000006</ele><time>2026-04-04T15:52:31.96Z</time></trkpt><trkpt lat="45.4015852" lon="7.6595907"><ele>412.0</ele><time>2026-04-04T15:52:32.951Z</time></trkpt><trkpt lat="45.4015489" lon="7.6594979"><ele>412.0</ele><time>2026-04-04T15:52:33.953Z</time></trkpt><trkpt lat="45.4015181" lon="7.6594057"><ele>412.0</ele><time>2026-04-04T15:52:34.952Z</time></trkpt><trkpt lat="45.4014884" lon="7.6593261"><ele>412.00000000000006</ele><time>2026-04-04T15:52:35.955Z</time></trkpt><trkpt lat="45.4014447" lon="7.6591701"><ele>412.0</ele><time>2026-04-04T15:52:37.949Z</time></trkpt><trkpt lat="45.4014254" lon="7.6589946"><ele>410.33333333333337</ele><time>2026-04-04T15:52:39.951Z</time></trkpt><trkpt lat="45.401424" lon="7.6588991"><ele>408.6666666666667</ele><time>2026-04-04T15:52:40.958Z</time></trkpt><trkpt lat="45.4014219" lon="7.6588038"><ele>407.0</ele><time>2026-04-04T15:52:41.956Z</time></trkpt><trkpt lat="45.4014171" lon="7.6586456"><ele>405.33333333333337</ele><time>2026-04-04T15:52:43.951Z</time></trkpt><trkpt lat="45.4014521" lon="7.6584878"><ele>403.6666666666667</ele><time>2026-04-04T15:52:45.955Z</time></trkpt><trkpt lat="45.4014794" lon="7.6583711"><ele>402.0</ele><time>2026-04-04T15:52:47.958Z</time></trkpt><trkpt lat="45.4015041" lon="7.6582301"><ele>401.6</ele><time>2026-04-04T15:52:49.952Z</time></trkpt><trkpt lat="45.4015276" lon="7.6581157"><ele>401.20000000000005</ele><time>2026-04-04T15:52:51.958Z</time></trkpt><trkpt lat="45.4015373" lon="7.6579947"><ele>400.8</ele><time>2026-04-04T15:52:54.956Z</time></trkpt><trkpt lat="45.4015658" lon="7.6578619"><ele>400.4</ele><time>2026-04-04T15:52:57.952Z</time></trkpt><trkpt lat="45.4015764" lon="7.6576986"><ele>400.0</ele><time>2026-04-04T15:52:59.959Z</time></trkpt><trkpt lat="45.401561" lon="7.657586"><ele>399.4</ele><time>2026-04-04T15:53:00.957Z</time></trkpt><trkpt lat="45.4015252" lon="7.6574744"><ele>398.8</ele><time>2026-04-04T15:53:01.96Z</time></trkpt><trkpt lat="45.4014623" lon="7.6573643"><ele>398.20000000000005</ele><time>2026-04-04T15:53:02.95Z</time></trkpt><trkpt lat="45.4013741" lon="7.6572218"><ele>397.6</ele><time>2026-04-04T15:53:03.959Z</time></trkpt><trkpt lat="45.4013014" lon="7.6570934"><ele>397.0</ele><time>2026-04-04T15:53:04.953Z</time></trkpt><trkpt lat="45.4012514" lon="7.656962"><ele>397.20000000000005</ele><time>2026-04-04T15:53:05.943Z</time></trkpt><trkpt lat="45.4012051" lon="7.6568551"><ele>397.4</ele><time>2026-04-04T15:53:06.96Z</time></trkpt><trkpt lat="45.4011552" lon="7.656768"><ele>397.6</ele><time>2026-04-04T15:53:07.96Z</time></trkpt><trkpt lat="45.401063" lon="7.6567246"><ele>397.79999999999995</ele><time>2026-04-04T15:53:08.959Z</time></trkpt><trkpt lat="45.4009234" lon="7.6567013"><ele>398.0</ele><time>2026-04-04T15:53:09.961Z</time></trkpt><trkpt lat="45.4007563" lon="7.6566713"><ele>398.0</ele><time>2026-04-04T15:53:10.949Z</time></trkpt><trkpt lat="45.4005734" lon="7.6566416"><ele>398.0</ele><time>2026-04-04T15:53:11.949Z</time></trkpt><trkpt lat="45.4003945" lon="7.6566268"><ele>398.0</ele><time>2026-04-04T15:53:12.958Z</time></trkpt><trkpt lat="45.400245" lon="7.6566198"><ele>397.25</ele><time>2026-04-04T15:53:13.95Z</time></trkpt><trkpt lat="45.4001112" lon="7.6566289"><ele>396.5</ele><time>2026-04-04T15:53:14.961Z</time></trkpt><trkpt lat="45.3999824" lon="7.6566462"><ele>395.75</ele><time>2026-04-04T15:53:15.958Z</time></trkpt><trkpt lat="45.3998757" lon="7.6566661"><ele>395.0</ele><time>2026-04-04T15:53:16.958Z</time></trkpt><trkpt lat="45.3997821" lon="7.6566752"><ele>395.0</ele><time>2026-04-04T15:53:17.963Z</time></trkpt><trkpt lat="45.3996893" lon="7.656649"><ele>395.0</ele><time>2026-04-04T15:53:18.956Z</time></trkpt><trkpt lat="45.3995871" lon="7.656578"><ele>395.0</ele><time>2026-04-04T15:53:19.955Z</time></trkpt><trkpt lat="45.3994647" lon="7.6564842"><ele>395.0</ele><time>2026-04-04T15:53:20.953Z</time></trkpt><trkpt lat="45.3993261" lon="7.656399"><ele>392.5</ele><time>2026-04-04T15:53:21.954Z</time></trkpt><trkpt lat="45.3992015" lon="7.6563293"><ele>390.0</ele><time>2026-04-04T15:53:22.957Z</time></trkpt><trkpt lat="45.3990819" lon="7.6562643"><ele>387.5</ele><time>2026-04-04T15:53:23.96Z</time></trkpt><trkpt lat="45.3989736" lon="7.6561487"><ele>385.0</ele><time>2026-04-04T15:53:24.961Z</time></trkpt><trkpt lat="45.3988679" lon="7.6560101"><ele>384.75</ele><time>2026-04-04T15:53:25.964Z</time></trkpt><trkpt lat="45.3987746" lon="7.6558886"><ele>384.5</ele><time>2026-04-04T15:53:26.963Z</time></trkpt><trkpt lat="45.3986774" lon="7.6557717"><ele>384.25</ele><time>2026-04-04T15:53:27.961Z</time></trkpt><trkpt lat="45.39859" lon="7.6556631"><ele>384.0</ele><time>2026-04-04T15:53:28.953Z</time></trkpt><trkpt lat="45.3985129" lon="7.6555452"><ele>384.0</ele><time>2026-04-04T15:53:29.954Z</time></trkpt><trkpt lat="45.3984401" lon="7.6554337"><ele>384.0</ele><time>2026-04-04T15:53:30.963Z</time></trkpt><trkpt lat="45.3983639" lon="7.6553333"><ele>384.0</ele><time>2026-04-04T15:53:31.96Z</time></trkpt><trkpt lat="45.3982828" lon="7.6552534"><ele>384.0</ele><time>2026-04-04T15:53:32.954Z</time></trkpt><trkpt lat="45.3981932" lon="7.6551912"><ele>384.0</ele><time>2026-04-04T15:53:33.953Z</time></trkpt><trkpt lat="45.3980905" lon="7.6551537"><ele>384.0</ele><time>2026-04-04T15:53:34.96Z</time></trkpt><trkpt lat="45.3979698" lon="7.6551394"><ele>384.0</ele><time>2026-04-04T15:53:35.953Z</time></trkpt><trkpt lat="45.397835" lon="7.65516"><ele>384.0</ele><time>2026-04-04T15:53:36.959Z</time></trkpt><trkpt lat="45.3977015" lon="7.6552059"><ele>384.0</ele><time>2026-04-04T15:53:37.958Z</time></trkpt><trkpt lat="45.397579" lon="7.6552586"><ele>384.0</ele><time>2026-04-04T15:53:38.955Z</time></trkpt><trkpt lat="45.3974794" lon="7.6552953"><ele>384.0</ele><time>2026-04-04T15:53:39.959Z</time></trkpt><trkpt lat="45.397408" lon="7.6553116"><ele>384.0</ele><time>2026-04-04T15:53:40.955Z</time></trkpt><trkpt lat="45.397341" lon="7.6553042"><ele>384.0</ele><time>2026-04-04T15:53:41.961Z</time></trkpt><trkpt lat="45.3972432" lon="7.6552495"><ele>384.0</ele><time>2026-04-04T15:53:42.963Z</time></trkpt><trkpt lat="45.3971186" lon="7.6551337"><ele>384.2</ele><time>2026-04-04T15:53:43.957Z</time></trkpt><trkpt lat="45.3969833" lon="7.6550092"><ele>384.4</ele><time>2026-04-04T15:53:44.946Z</time></trkpt><trkpt lat="45.3968702" lon="7.6549127"><ele>384.6</ele><time>2026-04-04T15:53:45.949Z</time></trkpt><trkpt lat="45.3968105" lon="7.6548295"><ele>384.8</ele><time>2026-04-04T15:53:47.943Z</time></trkpt><trkpt lat="45.3967492" lon="7.6547929"><ele>385.0</ele><time>2026-04-04T15:53:54.958Z</time></trkpt><trkpt lat="45.3966539" lon="7.6547846"><ele>385.0</ele><time>2026-04-04T15:54:01.956Z</time></trkpt><trkpt lat="45.3965881" lon="7.6549696"><ele>385.0</ele><time>2026-04-04T15:54:03.95Z</time></trkpt><trkpt lat="45.3965452" lon="7.6550773"><ele>385.0</ele><time>2026-04-04T15:54:04.942Z</time></trkpt><trkpt lat="45.3965069" lon="7.6551679"><ele>385.0</ele><time>2026-04-04T15:54:05.945Z</time></trkpt><trkpt lat="45.3964651" lon="7.6552606"><ele>385.0</ele><time>2026-04-04T15:54:07.952Z</time></trkpt><trkpt lat="45.3963907" lon="7.6553307"><ele>384.6</ele><time>2026-04-04T15:54:10.953Z</time></trkpt><trkpt lat="45.3962963" lon="7.6553442"><ele>384.2</ele><time>2026-04-04T15:54:12.953Z</time></trkpt><trkpt lat="45.3962337" lon="7.6553178"><ele>383.79999999999995</ele><time>2026-04-04T15:54:13.95Z</time></trkpt><trkpt lat="45.3961285" lon="7.6552327"><ele>383.4</ele><time>2026-04-04T15:54:15.955Z</time></trkpt><trkpt lat="45.3960768" lon="7.6551761"><ele>383.0</ele><time>2026-04-04T15:54:16.955Z</time></trkpt><trkpt lat="45.3959681" lon="7.6550631"><ele>383.0</ele><time>2026-04-04T15:54:18.958Z</time></trkpt><trkpt lat="45.395905" lon="7.6550004"><ele>383.0</ele><time>2026-04-04T15:54:19.946Z</time></trkpt><trkpt lat="45.3958376" lon="7.6549289"><ele>383.0</ele><time>2026-04-04T15:54:20.955Z</time></trkpt><trkpt lat="45.3957646" lon="7.654855"><ele>383.0</ele><time>2026-04-04T15:54:21.95Z</time></trkpt><trkpt lat="45.3956888" lon="7.65478"><ele>383.0</ele><time>2026-04-04T15:54:22.953Z</time></trkpt><trkpt lat="45.3956141" lon="7.6547025"><ele>383.0</ele><time>2026-04-04T15:54:23.968Z</time></trkpt><trkpt lat="45.3955366" lon="7.6546203"><ele>382.4</ele><time>2026-04-04T15:54:24.954Z</time></trkpt><trkpt lat="45.395451" lon="7.6545369"><ele>381.79999999999995</ele><time>2026-04-04T15:54:25.963Z</time></trkpt><trkpt lat="45.3953704" lon="7.6544537"><ele>381.2</ele><time>2026-04-04T15:54:26.956Z</time></trkpt><trkpt lat="45.3952869" lon="7.6543693"><ele>380.6</ele><time>2026-04-04T15:54:27.957Z</time></trkpt><trkpt lat="45.3952074" lon="7.6542895"><ele>380.0</ele><time>2026-04-04T15:54:28.958Z</time></trkpt><trkpt lat="45.3951338" lon="7.6542117"><ele>379.5</ele><time>2026-04-04T15:54:29.96Z</time></trkpt><trkpt lat="45.3950589" lon="7.654136"><ele>379.0</ele><time>2026-04-04T15:54:30.963Z</time></trkpt><trkpt lat="45.3949901" lon="7.6540578"><ele>378.5</ele><time>2026-04-04T15:54:31.954Z</time></trkpt><trkpt lat="45.3949239" lon="7.6539839"><ele>378.0</ele><time>2026-04-04T15:54:32.957Z</time></trkpt><trkpt lat="45.3948591" lon="7.6539174"><ele>377.5</ele><time>2026-04-04T15:54:33.954Z</time></trkpt><trkpt lat="45.3947991" lon="7.6538533"><ele>377.0</ele><time>2026-04-04T15:54:34.952Z</time></trkpt><trkpt lat="45.3947351" lon="7.6537894"><ele>377.1666666666667</ele><time>2026-04-04T15:54:35.952Z</time></trkpt><trkpt lat="45.3946697" lon="7.6537239"><ele>377.33333333333337</ele><time>2026-04-04T15:54:36.957Z</time></trkpt><trkpt lat="45.3946022" lon="7.6536553"><ele>377.5</ele><time>2026-04-04T15:54:37.941Z</time></trkpt><trkpt lat="45.3945374" lon="7.6535849"><ele>377.6666666666667</ele><time>2026-04-04T15:54:38.952Z</time></trkpt><trkpt lat="45.394471" lon="7.6535118"><ele>377.8333333333333</ele><time>2026-04-04T15:54:39.957Z</time></trkpt><trkpt lat="45.3943973" lon="7.6534289"><ele>378.0</ele><time>2026-04-04T15:54:40.945Z</time></trkpt><trkpt lat="45.3943188" lon="7.653348"><ele>379.0</ele><time>2026-04-04T15:54:41.948Z</time></trkpt><trkpt lat="45.3942427" lon="7.6532702"><ele>380.0</ele><time>2026-04-04T15:54:42.96Z</time></trkpt><trkpt lat="45.3941705" lon="7.6531912"><ele>381.0</ele><time>2026-04-04T15:54:43.954Z</time></trkpt><trkpt lat="45.3940999" lon="7.6531132"><ele>382.0</ele><time>2026-04-04T15:54:44.951Z</time></trkpt><trkpt lat="45.3940325" lon="7.6530462"><ele>383.0</ele><time>2026-04-04T15:54:45.949Z</time></trkpt><trkpt lat="45.3939616" lon="7.6529779"><ele>384.0</ele><time>2026-04-04T15:54:46.958Z</time></trkpt><trkpt lat="45.3938904" lon="7.6529094"><ele>384.4</ele><time>2026-04-04T15:54:47.957Z</time></trkpt><trkpt lat="45.3938159" lon="7.6528322"><ele>384.79999999999995</ele><time>2026-04-04T15:54:48.956Z</time></trkpt><trkpt lat="45.393744" lon="7.6527542"><ele>385.20000000000005</ele><time>2026-04-04T15:54:49.961Z</time></trkpt><trkpt lat="45.3936687" lon="7.6526716"><ele>385.6</ele><time>2026-04-04T15:54:50.943Z</time></trkpt><trkpt lat="45.3935916" lon="7.6525861"><ele>386.0</ele><time>2026-04-04T15:54:51.957Z</time></trkpt><trkpt lat="45.3935076" lon="7.6524995"><ele>387.20000000000005</ele><time>2026-04-04T15:54:52.965Z</time></trkpt><trkpt lat="45.3934238" lon="7.6524044"><ele>388.40000000000003</ele><time>2026-04-04T15:54:53.953Z</time></trkpt><trkpt lat="45.3933406" lon="7.6523223"><ele>389.6</ele><time>2026-04-04T15:54:54.953Z</time></trkpt><trkpt lat="45.3932579" lon="7.6522375"><ele>390.8</ele><time>2026-04-04T15:54:55.958Z</time></trkpt><trkpt lat="45.3931739" lon="7.6521515"><ele>392.0</ele><time>2026-04-04T15:54:56.956Z</time></trkpt><trkpt lat="45.3930906" lon="7.65207"><ele>393.8</ele><time>2026-04-04T15:54:57.958Z</time></trkpt><trkpt lat="45.3930051" lon="7.6519896"><ele>395.6</ele><time>2026-04-04T15:54:58.958Z</time></trkpt><trkpt lat="45.3929189" lon="7.651905"><ele>397.40000000000003</ele><time>2026-04-04T15:54:59.955Z</time></trkpt><trkpt lat="45.3928415" lon="7.6518203"><ele>399.20000000000005</ele><time>2026-04-04T15:55:00.953Z</time></trkpt><trkpt lat="45.3927628" lon="7.6517376"><ele>401.0</ele><time>2026-04-04T15:55:01.961Z</time></trkpt><trkpt lat="45.3926912" lon="7.6516597"><ele>401.16666666666663</ele><time>2026-04-04T15:55:02.963Z</time></trkpt><trkpt lat="45.3926244" lon="7.6515908"><ele>401.3333333333333</ele><time>2026-04-04T15:55:03.96Z</time></trkpt><trkpt lat="45.3925575" lon="7.6515183"><ele>401.5</ele><time>2026-04-04T15:55:04.954Z</time></trkpt><trkpt lat="45.3924964" lon="7.6514481"><ele>401.66666666666663</ele><time>2026-04-04T15:55:05.956Z</time></trkpt><trkpt lat="45.3924315" lon="7.6513814"><ele>401.8333333333333</ele><time>2026-04-04T15:55:06.96Z</time></trkpt><trkpt lat="45.392365" lon="7.6513078"><ele>402.0</ele><time>2026-04-04T15:55:07.955Z</time></trkpt><trkpt lat="45.392297" lon="7.6512395"><ele>402.0</ele><time>2026-04-04T15:55:08.956Z</time></trkpt><trkpt lat="45.3922303" lon="7.6511715"><ele>402.0</ele><time>2026-04-04T15:55:09.959Z</time></trkpt><trkpt lat="45.3921636" lon="7.6511091"><ele>402.0</ele><time>2026-04-04T15:55:10.947Z</time></trkpt><trkpt lat="45.3920993" lon="7.6510599"><ele>402.0</ele><time>2026-04-04T15:55:11.95Z</time></trkpt><trkpt lat="45.3919989" lon="7.650966"><ele>402.0</ele><time>2026-04-04T15:55:13.955Z</time></trkpt><trkpt lat="45.3919119" lon="7.650883"><ele>403.1666666666667</ele><time>2026-04-04T15:55:15.956Z</time></trkpt><trkpt lat="45.3918494" lon="7.6508115"><ele>404.33333333333337</ele><time>2026-04-04T15:55:17.955Z</time></trkpt><trkpt lat="45.3917904" lon="7.6507489"><ele>405.5</ele><time>2026-04-04T15:55:19.965Z</time></trkpt><trkpt lat="45.3917276" lon="7.6506986"><ele>406.6666666666667</ele><time>2026-04-04T15:55:21.958Z</time></trkpt><trkpt lat="45.3916507" lon="7.6506054"><ele>407.83333333333337</ele><time>2026-04-04T15:55:23.957Z</time></trkpt><trkpt lat="45.391563" lon="7.650516"><ele>409.0</ele><time>2026-04-04T15:55:25.962Z</time></trkpt><trkpt lat="45.391492" lon="7.6504303"><ele>409.0</ele><time>2026-04-04T15:55:27.975Z</time></trkpt><trkpt lat="45.3914246" lon="7.6503903"><ele>409.0</ele><time>2026-04-04T15:55:29.963Z</time></trkpt><trkpt lat="45.3913654" lon="7.6503283"><ele>409.0</ele><time>2026-04-04T15:55:37.962Z</time></trkpt><trkpt lat="45.3912551" lon="7.6501924"><ele>409.0</ele><time>2026-04-04T15:55:39.965Z</time></trkpt><trkpt lat="45.3911357" lon="7.6500575"><ele>409.0</ele><time>2026-04-04T15:55:40.955Z</time></trkpt><trkpt lat="45.3910262" lon="7.6499392"><ele>409.0</ele><time>2026-04-04T15:55:41.96Z</time></trkpt><trkpt lat="45.3909298" lon="7.649836"><ele>409.0</ele><time>2026-04-04T15:55:42.951Z</time></trkpt><trkpt lat="45.3908415" lon="7.6497385"><ele>409.0</ele><time>2026-04-04T15:55:43.952Z</time></trkpt><trkpt lat="45.3907629" lon="7.6496354"><ele>409.0</ele><time>2026-04-04T15:55:44.957Z</time></trkpt><trkpt lat="45.3906893" lon="7.6495373"><ele>409.0</ele><time>2026-04-04T15:55:45.957Z</time></trkpt><trkpt lat="45.3906236" lon="7.6494436"><ele>409.6666666666667</ele><time>2026-04-04T15:55:46.95Z</time></trkpt><trkpt lat="45.3905611" lon="7.6493589"><ele>410.33333333333337</ele><time>2026-04-04T15:55:47.955Z</time></trkpt><trkpt lat="45.3905114" lon="7.6492913"><ele>411.0</ele><time>2026-04-04T15:55:48.954Z</time></trkpt><trkpt lat="45.3904646" lon="7.6492244"><ele>411.66666666666663</ele><time>2026-04-04T15:55:49.961Z</time></trkpt><trkpt lat="45.3904109" lon="7.6491671"><ele>412.3333333333333</ele><time>2026-04-04T15:55:50.959Z</time></trkpt><trkpt lat="45.3903265" lon="7.6490978"><ele>413.0</ele><time>2026-04-04T15:55:51.953Z</time></trkpt><trkpt lat="45.390224" lon="7.6489957"><ele>413.0</ele><time>2026-04-04T15:55:52.963Z</time></trkpt><trkpt lat="45.3901105" lon="7.6488877"><ele>413.0</ele><time>2026-04-04T15:55:53.958Z</time></trkpt><trkpt lat="45.3900067" lon="7.6488002"><ele>413.0</ele><time>2026-04-04T15:55:54.951Z</time></trkpt><trkpt lat="45.3899136" lon="7.6486887"><ele>413.0</ele><time>2026-04-04T15:55:55.952Z</time></trkpt><trkpt lat="45.3898174" lon="7.6486011"><ele>414.0</ele><time>2026-04-04T15:55:56.952Z</time></trkpt><trkpt lat="45.3897205" lon="7.6484961"><ele>415.0</ele><time>2026-04-04T15:55:57.954Z</time></trkpt><trkpt lat="45.3896312" lon="7.6483792"><ele>416.0</ele><time>2026-04-04T15:55:58.962Z</time></trkpt><trkpt lat="45.389548" lon="7.6482661"><ele>417.0</ele><time>2026-04-04T15:55:59.958Z</time></trkpt><trkpt lat="45.3894606" lon="7.6481699"><ele>417.5</ele><time>2026-04-04T15:56:00.96Z</time></trkpt><trkpt lat="45.3893741" lon="7.6480849"><ele>418.0</ele><time>2026-04-04T15:56:01.96Z</time></trkpt><trkpt lat="45.3892796" lon="7.6479883"><ele>418.5</ele><time>2026-04-04T15:56:02.959Z</time></trkpt><trkpt lat="45.3891749" lon="7.6478759"><ele>419.0</ele><time>2026-04-04T15:56:03.948Z</time></trkpt><trkpt lat="45.3890698" lon="7.6477709"><ele>419.0</ele><time>2026-04-04T15:56:04.957Z</time></trkpt><trkpt lat="45.3889662" lon="7.6476575"><ele>419.0</ele><time>2026-04-04T15:56:05.952Z</time></trkpt><trkpt lat="45.3888568" lon="7.6475359"><ele>419.0</ele><time>2026-04-04T15:56:06.958Z</time></trkpt><trkpt lat="45.3887376" lon="7.6474037"><ele>419.0</ele><time>2026-04-04T15:56:07.956Z</time></trkpt><trkpt lat="45.3886112" lon="7.6472626"><ele>418.66666666666663</ele><time>2026-04-04T15:56:08.968Z</time></trkpt><trkpt lat="45.3884732" lon="7.6471102"><ele>418.33333333333337</ele><time>2026-04-04T15:56:09.956Z</time></trkpt><trkpt lat="45.3883264" lon="7.646948"><ele>418.0</ele><time>2026-04-04T15:56:10.957Z</time></trkpt><trkpt lat="45.3881895" lon="7.6468"><ele>418.0</ele><time>2026-04-04T15:56:11.964Z</time></trkpt><trkpt lat="45.3880604" lon="7.6466586"><ele>418.0</ele><time>2026-04-04T15:56:12.957Z</time></trkpt><trkpt lat="45.387941" lon="7.6465321"><ele>418.0</ele><time>2026-04-04T15:56:13.958Z</time></trkpt><trkpt lat="45.3878384" lon="7.6464189"><ele>418.0</ele><time>2026-04-04T15:56:14.954Z</time></trkpt><trkpt lat="45.3877539" lon="7.6463162"><ele>418.0</ele><time>2026-04-04T15:56:15.959Z</time></trkpt><trkpt lat="45.3876802" lon="7.6462484"><ele>418.0</ele><time>2026-04-04T15:56:16.952Z</time></trkpt><trkpt lat="45.3876215" lon="7.6461882"><ele>418.0</ele><time>2026-04-04T15:56:17.959Z</time></trkpt><trkpt lat="45.3875205" lon="7.646068"><ele>418.0</ele><time>2026-04-04T15:56:19.955Z</time></trkpt><trkpt lat="45.3874308" lon="7.6459719"><ele>418.0</ele><time>2026-04-04T15:56:20.957Z</time></trkpt><trkpt lat="45.3873319" lon="7.6458751"><ele>418.0</ele><time>2026-04-04T15:56:21.958Z</time></trkpt><trkpt lat="45.3872211" lon="7.6457638"><ele>418.0</ele><time>2026-04-04T15:56:22.958Z</time></trkpt><trkpt lat="45.3871152" lon="7.6456626"><ele>418.0</ele><time>2026-04-04T15:56:23.945Z</time></trkpt><trkpt lat="45.3870203" lon="7.6455737"><ele>418.0</ele><time>2026-04-04T15:56:24.961Z</time></trkpt><trkpt lat="45.3869293" lon="7.6454838"><ele>418.0</ele><time>2026-04-04T15:56:25.961Z</time></trkpt><trkpt lat="45.3868371" lon="7.645392"><ele>418.0</ele><time>2026-04-04T15:56:26.952Z</time></trkpt><trkpt lat="45.386749" lon="7.6453018"><ele>418.0</ele><time>2026-04-04T15:56:27.956Z</time></trkpt><trkpt lat="45.3866613" lon="7.6452124"><ele>418.0</ele><time>2026-04-04T15:56:28.958Z</time></trkpt><trkpt lat="45.3865792" lon="7.6451102"><ele>418.0</ele><time>2026-04-04T15:56:29.952Z</time></trkpt><trkpt lat="45.3864992" lon="7.6449728"><ele>417.5</ele><time>2026-04-04T15:56:30.953Z</time></trkpt><trkpt lat="45.386427" lon="7.644818"><ele>417.0</ele><time>2026-04-04T15:56:31.955Z</time></trkpt><trkpt lat="45.3863534" lon="7.6446657"><ele>416.5</ele><time>2026-04-04T15:56:32.965Z</time></trkpt><trkpt lat="45.3862859" lon="7.6445213"><ele>416.0</ele><time>2026-04-04T15:56:33.956Z</time></trkpt><trkpt lat="45.3862213" lon="7.6443828"><ele>416.0</ele><time>2026-04-04T15:56:34.963Z</time></trkpt><trkpt lat="45.3861604" lon="7.6442514"><ele>416.0</ele><time>2026-04-04T15:56:36.031Z</time></trkpt><trkpt lat="45.3861029" lon="7.6441203"><ele>416.0</ele><time>2026-04-04T15:56:36.944Z</time></trkpt><trkpt lat="45.3860347" lon="7.6439969"><ele>416.0</ele><time>2026-04-04T15:56:37.958Z</time></trkpt><trkpt lat="45.3859599" lon="7.643876"><ele>416.0</ele><time>2026-04-04T15:56:38.957Z</time></trkpt><trkpt lat="45.3858777" lon="7.6437689"><ele>416.0</ele><time>2026-04-04T15:56:40.012Z</time></trkpt><trkpt lat="45.3857837" lon="7.6436686"><ele>416.0</ele><time>2026-04-04T15:56:41.029Z</time></trkpt><trkpt lat="45.3856812" lon="7.6435916"><ele>416.0</ele><time>2026-04-04T15:56:42.018Z</time></trkpt><trkpt lat="45.3855665" lon="7.6435308"><ele>416.0</ele><time>2026-04-04T15:56:42.959Z</time></trkpt><trkpt lat="45.3854407" lon="7.6434777"><ele>415.5</ele><time>2026-04-04T15:56:43.96Z</time></trkpt><trkpt lat="45.3853143" lon="7.6434225"><ele>415.0</ele><time>2026-04-04T15:56:44.964Z</time></trkpt><trkpt lat="45.3851627" lon="7.6433577"><ele>414.5</ele><time>2026-04-04T15:56:46.031Z</time></trkpt><trkpt lat="45.3850135" lon="7.6432872"><ele>414.0</ele><time>2026-04-04T15:56:47.038Z</time></trkpt><trkpt lat="45.3848842" lon="7.6432294"><ele>414.0</ele><time>2026-04-04T15:56:47.951Z</time></trkpt><trkpt lat="45.3847692" lon="7.6431726"><ele>414.0</ele><time>2026-04-04T15:56:48.959Z</time></trkpt><trkpt lat="45.3846583" lon="7.6431148"><ele>414.0</ele><time>2026-04-04T15:56:49.972Z</time></trkpt><trkpt lat="45.3845486" lon="7.6430578"><ele>414.0</ele><time>2026-04-04T15:56:50.954Z</time></trkpt><trkpt lat="45.3844416" lon="7.6430111"><ele>416.75</ele><time>2026-04-04T15:56:52.042Z</time></trkpt><trkpt lat="45.3843401" lon="7.6429921"><ele>419.5</ele><time>2026-04-04T15:56:52.955Z</time></trkpt><trkpt lat="45.3842352" lon="7.6430139"><ele>422.25</ele><time>2026-04-04T15:56:54.031Z</time></trkpt><trkpt lat="45.3841204" lon="7.6430878"><ele>425.0</ele><time>2026-04-04T15:56:55.028Z</time></trkpt><trkpt lat="45.3839856" lon="7.643176"><ele>430.66666666666663</ele><time>2026-04-04T15:56:56.027Z</time></trkpt><trkpt lat="45.3838361" lon="7.6432754"><ele>436.33333333333337</ele><time>2026-04-04T15:56:57.025Z</time></trkpt><trkpt lat="45.3836611" lon="7.6433764"><ele>442.0</ele><time>2026-04-04T15:56:57.956Z</time></trkpt><trkpt lat="45.3835089" lon="7.6434706"><ele>442.0</ele><time>2026-04-04T15:56:58.947Z</time></trkpt><trkpt lat="45.3834019" lon="7.6435557"><ele>442.00000000000006</ele><time>2026-04-04T15:56:59.956Z</time></trkpt><trkpt lat="45.3833186" lon="7.6436446"><ele>442.00000000000006</ele><time>2026-04-04T15:57:00.947Z</time></trkpt><trkpt lat="45.3832518" lon="7.6437368"><ele>442.0</ele><time>2026-04-04T15:57:01.955Z</time></trkpt><trkpt lat="45.3831615" lon="7.6438039"><ele>442.0</ele><time>2026-04-04T15:57:04.031Z</time></trkpt><trkpt lat="45.3831016" lon="7.6436864"><ele>442.0</ele><time>2026-04-04T15:57:06.955Z</time></trkpt><trkpt lat="45.383082" lon="7.6435874"><ele>442.0</ele><time>2026-04-04T15:57:07.952Z</time></trkpt><trkpt lat="45.3830956" lon="7.6433526"><ele>442.0</ele><time>2026-04-04T15:57:08.952Z</time></trkpt><trkpt lat="45.383122" lon="7.6431389"><ele>442.0</ele><time>2026-04-04T15:57:10.015Z</time></trkpt><trkpt lat="45.3831344" lon="7.6429724"><ele>442.0</ele><time>2026-04-04T15:57:10.969Z</time></trkpt><trkpt lat="45.3831199" lon="7.6428585"><ele>442.0</ele><time>2026-04-04T15:57:12.033Z</time></trkpt><trkpt lat="45.383083" lon="7.6427507"><ele>442.0</ele><time>2026-04-04T15:57:13.952Z</time></trkpt><trkpt lat="45.3829871" lon="7.6429203"><ele>442.0</ele><time>2026-04-04T15:57:16.954Z</time></trkpt><trkpt lat="45.3829003" lon="7.6431077"><ele>446.6</ele><time>2026-04-04T15:57:17.992Z</time></trkpt><trkpt lat="45.3828354" lon="7.6432192"><ele>451.20000000000005</ele><time>2026-04-04T15:57:18.961Z</time></trkpt><trkpt lat="45.382761" lon="7.6433044"><ele>455.8</ele><time>2026-04-04T15:57:20.955Z</time></trkpt><trkpt lat="45.3826867" lon="7.6432475"><ele>460.4</ele><time>2026-04-04T15:57:22.959Z</time></trkpt><trkpt lat="45.3826132" lon="7.643138"><ele>465.0</ele><time>2026-04-04T15:57:24.959Z</time></trkpt><trkpt lat="45.3826247" lon="7.6429395"><ele>465.0</ele><time>2026-04-04T15:57:27.03Z</time></trkpt><trkpt lat="45.3826359" lon="7.6428386"><ele>465.0</ele><time>2026-04-04T15:57:27.965Z</time></trkpt><trkpt lat="45.3826895" lon="7.6429322"><ele>465.0</ele><time>2026-04-04T15:57:31.963Z</time></trkpt><trkpt lat="45.3826325" lon="7.6430725"><ele>465.0</ele><time>2026-04-04T15:57:32.965Z</time></trkpt><trkpt lat="45.3825115" lon="7.6432493"><ele>465.0</ele><time>2026-04-04T15:57:33.958Z</time></trkpt><trkpt lat="45.3823877" lon="7.643412"><ele>465.0</ele><time>2026-04-04T15:57:34.97Z</time></trkpt><trkpt lat="45.3822718" lon="7.6435535"><ele>465.0</ele><time>2026-04-04T15:57:35.965Z</time></trkpt><trkpt lat="45.3821627" lon="7.6436316"><ele>465.0</ele><time>2026-04-04T15:57:37.05Z</time></trkpt><trkpt lat="45.3819492" lon="7.6437069"><ele>466.0</ele><time>2026-04-04T15:57:38.963Z</time></trkpt><trkpt lat="45.3818393" lon="7.6437052"><ele>467.0</ele><time>2026-04-04T15:57:39.953Z</time></trkpt><trkpt lat="45.3817406" lon="7.6437183"><ele>468.0</ele><time>2026-04-04T15:57:40.96Z</time></trkpt><trkpt lat="45.3816605" lon="7.6437361"><ele>469.0</ele><time>2026-04-04T15:57:41.958Z</time></trkpt><trkpt lat="45.3815678" lon="7.643667"><ele>470.0</ele><time>2026-04-04T15:57:43.983Z</time></trkpt><trkpt lat="45.3815325" lon="7.6435755"><ele>470.4</ele><time>2026-04-04T15:57:44.956Z</time></trkpt><trkpt lat="45.3815123" lon="7.6434447"><ele>470.8</ele><time>2026-04-04T15:57:45.95Z</time></trkpt><trkpt lat="45.3814933" lon="7.6432826"><ele>471.20000000000005</ele><time>2026-04-04T15:57:46.954Z</time></trkpt><trkpt lat="45.381479" lon="7.6431519"><ele>471.6</ele><time>2026-04-04T15:57:47.956Z</time></trkpt><trkpt lat="45.3814023" lon="7.6430249"><ele>472.0</ele><time>2026-04-04T15:57:49.958Z</time></trkpt><trkpt lat="45.3813394" lon="7.6429768"><ele>472.83333333333337</ele><time>2026-04-04T15:57:51.032Z</time></trkpt><trkpt lat="45.3812631" lon="7.6429111"><ele>473.6666666666667</ele><time>2026-04-04T15:57:52.03Z</time></trkpt><trkpt lat="45.3812152" lon="7.6428383"><ele>474.5</ele><time>2026-04-04T15:57:52.952Z</time></trkpt><trkpt lat="45.3812227" lon="7.6427162"><ele>475.33333333333337</ele><time>2026-04-04T15:57:54.96Z</time></trkpt><trkpt lat="45.3813044" lon="7.6426849"><ele>476.1666666666667</ele><time>2026-04-04T15:57:56.961Z</time></trkpt><trkpt lat="45.3813797" lon="7.6427266"><ele>477.0</ele><time>2026-04-04T15:57:57.966Z</time></trkpt><trkpt lat="45.3814549" lon="7.6427579"><ele>478.40000000000003</ele><time>2026-04-04T15:57:58.963Z</time></trkpt><trkpt lat="45.3815228" lon="7.6427347"><ele>479.80000000000007</ele><time>2026-04-04T15:58:00.041Z</time></trkpt><trkpt lat="45.3816069" lon="7.6426719"><ele>481.2</ele><time>2026-04-04T15:58:01.024Z</time></trkpt><trkpt lat="45.3817058" lon="7.642588"><ele>482.6</ele><time>2026-04-04T15:58:02.026Z</time></trkpt><trkpt lat="45.3818122" lon="7.6424932"><ele>484.0</ele><time>2026-04-04T15:58:02.966Z</time></trkpt><trkpt lat="45.3819078" lon="7.6424044"><ele>484.0</ele><time>2026-04-04T15:58:03.965Z</time></trkpt><trkpt lat="45.3819826" lon="7.6422975"><ele>484.0</ele><time>2026-04-04T15:58:04.962Z</time></trkpt><trkpt lat="45.3820649" lon="7.6421546"><ele>484.0</ele><time>2026-04-04T15:58:05.961Z</time></trkpt><trkpt lat="45.3821466" lon="7.6419745"><ele>484.0</ele><time>2026-04-04T15:58:06.959Z</time></trkpt><trkpt lat="45.3822384" lon="7.6417584"><ele>486.0</ele><time>2026-04-04T15:58:07.978Z</time></trkpt><trkpt lat="45.3823389" lon="7.6415367"><ele>488.0</ele><time>2026-04-04T15:58:09.035Z</time></trkpt><trkpt lat="45.3824454" lon="7.6413182"><ele>490.0</ele><time>2026-04-04T15:58:10.041Z</time></trkpt><trkpt lat="45.3825282" lon="7.6411348"><ele>493.8</ele><time>2026-04-04T15:58:10.952Z</time></trkpt><trkpt lat="45.3826043" lon="7.6409906"><ele>497.6</ele><time>2026-04-04T15:58:11.954Z</time></trkpt><trkpt lat="45.3826848" lon="7.6408787"><ele>501.4</ele><time>2026-04-04T15:58:12.961Z</time></trkpt><trkpt lat="45.3827638" lon="7.6407994"><ele>505.2</ele><time>2026-04-04T15:58:13.952Z</time></trkpt><trkpt lat="45.3828052" lon="7.6407065"><ele>509.0</ele><time>2026-04-04T15:58:15.958Z</time></trkpt><trkpt lat="45.3827321" lon="7.640699"><ele>509.0</ele><time>2026-04-04T15:58:17.952Z</time></trkpt><trkpt lat="45.3826707" lon="7.6407259"><ele>509.0</ele><time>2026-04-04T15:58:18.963Z</time></trkpt><trkpt lat="45.3826136" lon="7.6407871"><ele>509.0</ele><time>2026-04-04T15:58:19.95Z</time></trkpt><trkpt lat="45.3825322" lon="7.6408511"><ele>509.0</ele><time>2026-04-04T15:58:20.965Z</time></trkpt><trkpt lat="45.382417" lon="7.6409084"><ele>509.0</ele><time>2026-04-04T15:58:21.96Z</time></trkpt><trkpt lat="45.3822888" lon="7.6409564"><ele>509.75</ele><time>2026-04-04T15:58:23.024Z</time></trkpt><trkpt lat="45.3821613" lon="7.6410078"><ele>510.5</ele><time>2026-04-04T15:58:23.956Z</time></trkpt><trkpt lat="45.3820428" lon="7.6410423"><ele>511.25</ele><time>2026-04-04T15:58:24.956Z</time></trkpt><trkpt lat="45.3819345" lon="7.6410398"><ele>512.0</ele><time>2026-04-04T15:58:25.956Z</time></trkpt><trkpt lat="45.3818298" lon="7.6409933"><ele>512.0</ele><time>2026-04-04T15:58:27.009Z</time></trkpt><trkpt lat="45.3817365" lon="7.640931"><ele>512.0</ele><time>2026-04-04T15:58:27.956Z</time></trkpt><trkpt lat="45.3816729" lon="7.6408603"><ele>512.0</ele><time>2026-04-04T15:58:28.955Z</time></trkpt><trkpt lat="45.3816172" lon="7.6407679"><ele>512.0</ele><time>2026-04-04T15:58:29.958Z</time></trkpt><trkpt lat="45.3815774" lon="7.6406446"><ele>512.0</ele><time>2026-04-04T15:58:31.035Z</time></trkpt><trkpt lat="45.3815396" lon="7.6404678"><ele>511.66666666666663</ele><time>2026-04-04T15:58:32.028Z</time></trkpt><trkpt lat="45.3814777" lon="7.640283"><ele>511.33333333333337</ele><time>2026-04-04T15:58:32.959Z</time></trkpt><trkpt lat="45.3813885" lon="7.6401039"><ele>511.0</ele><time>2026-04-04T15:58:33.96Z</time></trkpt><trkpt lat="45.3812887" lon="7.6399389"><ele>511.0</ele><time>2026-04-04T15:58:34.971Z</time></trkpt><trkpt lat="45.381194" lon="7.6397903"><ele>511.0</ele><time>2026-04-04T15:58:36.043Z</time></trkpt><trkpt lat="45.3811169" lon="7.6396543"><ele>511.0</ele><time>2026-04-04T15:58:37.035Z</time></trkpt><trkpt lat="45.3810549" lon="7.6395344"><ele>511.0</ele><time>2026-04-04T15:58:37.962Z</time></trkpt><trkpt lat="45.3810109" lon="7.6394305"><ele>513.1666666666667</ele><time>2026-04-04T15:58:38.963Z</time></trkpt><trkpt lat="45.3809828" lon="7.639326"><ele>515.3333333333334</ele><time>2026-04-04T15:58:39.954Z</time></trkpt><trkpt lat="45.3809685" lon="7.6392081"><ele>517.5</ele><time>2026-04-04T15:58:40.956Z</time></trkpt><trkpt lat="45.3809632" lon="7.6390764"><ele>519.6666666666666</ele><time>2026-04-04T15:58:42.026Z</time></trkpt><trkpt lat="45.3809547" lon="7.6389526"><ele>521.8333333333333</ele><time>2026-04-04T15:58:42.958Z</time></trkpt><trkpt lat="45.3809245" lon="7.638843"><ele>524.0</ele><time>2026-04-04T15:58:43.954Z</time></trkpt><trkpt lat="45.3808813" lon="7.6387397"><ele>524.0</ele><time>2026-04-04T15:58:44.966Z</time></trkpt><trkpt lat="45.3808086" lon="7.6386672"><ele>524.0</ele><time>2026-04-04T15:58:45.959Z</time></trkpt><trkpt lat="45.380699" lon="7.6386287"><ele>524.0</ele><time>2026-04-04T15:58:46.963Z</time></trkpt><trkpt lat="45.3805884" lon="7.6385868"><ele>524.0</ele><time>2026-04-04T15:58:47.962Z</time></trkpt><trkpt lat="45.3804939" lon="7.6385272"><ele>524.0</ele><time>2026-04-04T15:58:48.957Z</time></trkpt><trkpt lat="45.3804001" lon="7.638456"><ele>523.75</ele><time>2026-04-04T15:58:50.034Z</time></trkpt><trkpt lat="45.3803121" lon="7.6383777"><ele>523.5</ele><time>2026-04-04T15:58:51.025Z</time></trkpt><trkpt lat="45.3802203" lon="7.6382843"><ele>523.25</ele><time>2026-04-04T15:58:51.962Z</time></trkpt><trkpt lat="45.3801407" lon="7.6381484"><ele>523.0</ele><time>2026-04-04T15:58:52.962Z</time></trkpt><trkpt lat="45.3800668" lon="7.6379983"><ele>523.0</ele><time>2026-04-04T15:58:53.966Z</time></trkpt><trkpt lat="45.3799936" lon="7.6378471"><ele>523.0</ele><time>2026-04-04T15:58:54.966Z</time></trkpt><trkpt lat="45.3799127" lon="7.6377067"><ele>523.0</ele><time>2026-04-04T15:58:55.964Z</time></trkpt><trkpt lat="45.3798197" lon="7.6375776"><ele>523.0</ele><time>2026-04-04T15:58:56.969Z</time></trkpt><trkpt lat="45.3797135" lon="7.6374621"><ele>525.6666666666667</ele><time>2026-04-04T15:58:57.954Z</time></trkpt><trkpt lat="45.3795832" lon="7.6373515"><ele>528.3333333333334</ele><time>2026-04-04T15:58:58.966Z</time></trkpt><trkpt lat="45.3794381" lon="7.6372395"><ele>531.0</ele><time>2026-04-04T15:59:00.052Z</time></trkpt><trkpt lat="45.3792838" lon="7.6371265"><ele>531.0</ele><time>2026-04-04T15:59:00.967Z</time></trkpt><trkpt lat="45.3791214" lon="7.6370125"><ele>531.0</ele><time>2026-04-04T15:59:01.959Z</time></trkpt><trkpt lat="45.3789734" lon="7.6369166"><ele>531.0</ele><time>2026-04-04T15:59:02.96Z</time></trkpt><trkpt lat="45.3788272" lon="7.6368292"><ele>530.3333333333334</ele><time>2026-04-04T15:59:03.963Z</time></trkpt><trkpt lat="45.3786861" lon="7.6367274"><ele>529.6666666666667</ele><time>2026-04-04T15:59:04.962Z</time></trkpt><trkpt lat="45.3785474" lon="7.6366231"><ele>529.0</ele><time>2026-04-04T15:59:05.96Z</time></trkpt><trkpt lat="45.3784138" lon="7.6364903"><ele>529.0</ele><time>2026-04-04T15:59:06.996Z</time></trkpt><trkpt lat="45.3782789" lon="7.6363592"><ele>529.0</ele><time>2026-04-04T15:59:07.952Z</time></trkpt><trkpt lat="45.3781472" lon="7.6362113"><ele>529.0</ele><time>2026-04-04T15:59:09.042Z</time></trkpt><trkpt lat="45.378019" lon="7.6360688"><ele>528.0</ele><time>2026-04-04T15:59:09.963Z</time></trkpt><trkpt lat="45.3778936" lon="7.6359289"><ele>527.0</ele><time>2026-04-04T15:59:11.045Z</time></trkpt><trkpt lat="45.3777732" lon="7.6357917"><ele>526.0</ele><time>2026-04-04T15:59:12.031Z</time></trkpt><trkpt lat="45.377656" lon="7.6356384"><ele>526.0</ele><time>2026-04-04T15:59:12.958Z</time></trkpt><trkpt lat="45.3775369" lon="7.6354881"><ele>526.0</ele><time>2026-04-04T15:59:14.027Z</time></trkpt><trkpt lat="45.3774122" lon="7.6353345"><ele>526.0</ele><time>2026-04-04T15:59:14.964Z</time></trkpt><trkpt lat="45.3772877" lon="7.6351791"><ele>527.6666666666667</ele><time>2026-04-04T15:59:16.041Z</time></trkpt><trkpt lat="45.3771723" lon="7.6350313"><ele>529.3333333333334</ele><time>2026-04-04T15:59:17.036Z</time></trkpt><trkpt lat="45.3770581" lon="7.6348728"><ele>531.0</ele><time>2026-04-04T15:59:17.958Z</time></trkpt><trkpt lat="45.3769543" lon="7.6347082"><ele>531.0</ele><time>2026-04-04T15:59:18.953Z</time></trkpt><trkpt lat="45.3768587" lon="7.6345294"><ele>531.0</ele><time>2026-04-04T15:59:19.966Z</time></trkpt><trkpt lat="45.3767745" lon="7.6343333"><ele>531.0</ele><time>2026-04-04T15:59:21.042Z</time></trkpt><trkpt lat="45.3766914" lon="7.6341377"><ele>532.3333333333334</ele><time>2026-04-04T15:59:22.034Z</time></trkpt><trkpt lat="45.3766031" lon="7.6339485"><ele>533.6666666666667</ele><time>2026-04-04T15:59:22.962Z</time></trkpt><trkpt lat="45.3765085" lon="7.6337753"><ele>535.0</ele><time>2026-04-04T15:59:23.963Z</time></trkpt><trkpt lat="45.3764091" lon="7.6336061"><ele>537.6666666666667</ele><time>2026-04-04T15:59:24.96Z</time></trkpt><trkpt lat="45.3763095" lon="7.6334444"><ele>540.3333333333334</ele><time>2026-04-04T15:59:25.961Z</time></trkpt><trkpt lat="45.3762084" lon="7.633285"><ele>543.0</ele><time>2026-04-04T15:59:27.022Z</time></trkpt><trkpt lat="45.3761041" lon="7.6331279"><ele>543.0</ele><time>2026-04-04T15:59:27.967Z</time></trkpt><trkpt lat="45.3759996" lon="7.6329831"><ele>543.0</ele><time>2026-04-04T15:59:28.957Z</time></trkpt><trkpt lat="45.375887" lon="7.632848"><ele>543.0</ele><time>2026-04-04T15:59:29.984Z</time></trkpt><trkpt lat="45.3757762" lon="7.6327144"><ele>543.0</ele><time>2026-04-04T15:59:31.019Z</time></trkpt><trkpt lat="45.3756686" lon="7.6325744"><ele>543.25</ele><time>2026-04-04T15:59:31.961Z</time></trkpt><trkpt lat="45.3755547" lon="7.6324485"><ele>543.5</ele><time>2026-04-04T15:59:32.965Z</time></trkpt><trkpt lat="45.3754524" lon="7.6323343"><ele>543.75</ele><time>2026-04-04T15:59:33.963Z</time></trkpt><trkpt lat="45.3753608" lon="7.6322157"><ele>544.0</ele><time>2026-04-04T15:59:34.961Z</time></trkpt><trkpt lat="45.375265" lon="7.6320885"><ele>546.5</ele><time>2026-04-04T15:59:35.958Z</time></trkpt><trkpt lat="45.3751753" lon="7.631931"><ele>549.0</ele><time>2026-04-04T15:59:36.961Z</time></trkpt><trkpt lat="45.375113" lon="7.6317361"><ele>551.5</ele><time>2026-04-04T15:59:37.964Z</time></trkpt><trkpt lat="45.3750726" lon="7.631528"><ele>554.0</ele><time>2026-04-04T15:59:39.051Z</time></trkpt><trkpt lat="45.3750379" lon="7.6313214"><ele>555.3333333333333</ele><time>2026-04-04T15:59:40.034Z</time></trkpt><trkpt lat="45.3750106" lon="7.6311097"><ele>556.6666666666666</ele><time>2026-04-04T15:59:41.034Z</time></trkpt><trkpt lat="45.3749881" lon="7.6308892"><ele>558.0</ele><time>2026-04-04T15:59:41.953Z</time></trkpt><trkpt lat="45.3749771" lon="7.6306656"><ele>558.0</ele><time>2026-04-04T15:59:42.961Z</time></trkpt><trkpt lat="45.3749801" lon="7.630458"><ele>558.0</ele><time>2026-04-04T15:59:43.96Z</time></trkpt><trkpt lat="45.3749939" lon="7.6302739"><ele>558.0</ele><time>2026-04-04T15:59:44.957Z</time></trkpt><trkpt lat="45.3750081" lon="7.6301169"><ele>558.0</ele><time>2026-04-04T15:59:45.954Z</time></trkpt><trkpt lat="45.3750091" lon="7.6299633"><ele>558.1999999999999</ele><time>2026-04-04T15:59:46.964Z</time></trkpt><trkpt lat="45.3749932" lon="7.6298285"><ele>558.4</ele><time>2026-04-04T15:59:47.959Z</time></trkpt><trkpt lat="45.3749539" lon="7.6297076"><ele>558.5999999999999</ele><time>2026-04-04T15:59:48.962Z</time></trkpt><trkpt lat="45.3749056" lon="7.6295907"><ele>558.8</ele><time>2026-04-04T15:59:50.056Z</time></trkpt><trkpt lat="45.3748391" lon="7.6294658"><ele>559.0</ele><time>2026-04-04T15:59:51.025Z</time></trkpt><trkpt lat="45.3747495" lon="7.6293582"><ele>560.6666666666667</ele><time>2026-04-04T15:59:52.016Z</time></trkpt><trkpt lat="45.3746146" lon="7.6292715"><ele>562.3333333333334</ele><time>2026-04-04T15:59:52.983Z</time></trkpt><trkpt lat="45.3744599" lon="7.6291946"><ele>564.0</ele><time>2026-04-04T15:59:54.026Z</time></trkpt><trkpt lat="45.3743214" lon="7.6291155"><ele>564.0</ele><time>2026-04-04T15:59:55.031Z</time></trkpt><trkpt lat="45.3741962" lon="7.6290381"><ele>564.0</ele><time>2026-04-04T15:59:56.033Z</time></trkpt><trkpt lat="45.3740869" lon="7.6289593"><ele>564.0</ele><time>2026-04-04T15:59:56.962Z</time></trkpt><trkpt lat="45.3739971" lon="7.6288708"><ele>564.0</ele><time>2026-04-04T15:59:57.959Z</time></trkpt><trkpt lat="45.3739345" lon="7.6287417"><ele>562.0</ele><time>2026-04-04T15:59:58.958Z</time></trkpt><trkpt lat="45.373873" lon="7.6285954"><ele>560.0</ele><time>2026-04-04T15:59:59.967Z</time></trkpt><trkpt lat="45.3738052" lon="7.6284216"><ele>558.0</ele><time>2026-04-04T16:00:01.022Z</time></trkpt><trkpt lat="45.3737416" lon="7.628238"><ele>556.0</ele><time>2026-04-04T16:00:02.015Z</time></trkpt><trkpt lat="45.3736768" lon="7.6280589"><ele>556.0</ele><time>2026-04-04T16:00:02.957Z</time></trkpt><trkpt lat="45.3735977" lon="7.6278942"><ele>556.0</ele><time>2026-04-04T16:00:03.943Z</time></trkpt><trkpt lat="45.3734923" lon="7.6277216"><ele>556.0</ele><time>2026-04-04T16:00:04.959Z</time></trkpt><trkpt lat="45.3733792" lon="7.6275481"><ele>557.3333333333334</ele><time>2026-04-04T16:00:06.015Z</time></trkpt><trkpt lat="45.3732674" lon="7.6273864"><ele>558.6666666666666</ele><time>2026-04-04T16:00:06.963Z</time></trkpt><trkpt lat="45.3731604" lon="7.6272219"><ele>560.0</ele><time>2026-04-04T16:00:07.953Z</time></trkpt><trkpt lat="45.3730553" lon="7.6270555"><ele>562.6666666666666</ele><time>2026-04-04T16:00:08.959Z</time></trkpt><trkpt lat="45.3729545" lon="7.6268826"><ele>565.3333333333334</ele><time>2026-04-04T16:00:09.954Z</time></trkpt><trkpt lat="45.372862" lon="7.6267074"><ele>568.0</ele><time>2026-04-04T16:00:11.032Z</time></trkpt><trkpt lat="45.3727763" lon="7.6265367"><ele>568.0</ele><time>2026-04-04T16:00:12.035Z</time></trkpt><trkpt lat="45.3726973" lon="7.6263708"><ele>568.0</ele><time>2026-04-04T16:00:12.957Z</time></trkpt><trkpt lat="45.3726276" lon="7.626221"><ele>568.0</ele><time>2026-04-04T16:00:13.952Z</time></trkpt><trkpt lat="45.3725604" lon="7.626064"><ele>568.0</ele><time>2026-04-04T16:00:14.958Z</time></trkpt><trkpt lat="45.3724881" lon="7.6259243"><ele>568.25</ele><time>2026-04-04T16:00:15.951Z</time></trkpt><trkpt lat="45.3724066" lon="7.6258107"><ele>568.5</ele><time>2026-04-04T16:00:16.951Z</time></trkpt><trkpt lat="45.3723137" lon="7.6257086"><ele>568.75</ele><time>2026-04-04T16:00:17.953Z</time></trkpt><trkpt lat="45.3722063" lon="7.6256216"><ele>569.0</ele><time>2026-04-04T16:00:18.962Z</time></trkpt><trkpt lat="45.3720956" lon="7.6255494"><ele>569.0</ele><time>2026-04-04T16:00:20.032Z</time></trkpt><trkpt lat="45.3719892" lon="7.6254744"><ele>569.0</ele><time>2026-04-04T16:00:21.03Z</time></trkpt><trkpt lat="45.3718963" lon="7.6253921"><ele>569.0</ele><time>2026-04-04T16:00:22.023Z</time></trkpt><trkpt lat="45.3718025" lon="7.6252831"><ele>569.0</ele><time>2026-04-04T16:00:22.968Z</time></trkpt><trkpt lat="45.3717246" lon="7.6251352"><ele>569.25</ele><time>2026-04-04T16:00:23.96Z</time></trkpt><trkpt lat="45.3716754" lon="7.6249615"><ele>569.5</ele><time>2026-04-04T16:00:24.956Z</time></trkpt><trkpt lat="45.3716198" lon="7.6247961"><ele>569.75</ele><time>2026-04-04T16:00:25.958Z</time></trkpt><trkpt lat="45.3715505" lon="7.6246436"><ele>570.0</ele><time>2026-04-04T16:00:26.962Z</time></trkpt><trkpt lat="45.3714812" lon="7.6245096"><ele>569.0</ele><time>2026-04-04T16:00:27.956Z</time></trkpt><trkpt lat="45.371406" lon="7.6243758"><ele>568.0</ele><time>2026-04-04T16:00:29.049Z</time></trkpt><trkpt lat="45.3713294" lon="7.624236"><ele>567.0</ele><time>2026-04-04T16:00:30.033Z</time></trkpt><trkpt lat="45.3712501" lon="7.6240843"><ele>566.0</ele><time>2026-04-04T16:00:31.029Z</time></trkpt><trkpt lat="45.3711537" lon="7.6238929"><ele>573.0</ele><time>2026-04-04T16:00:32.051Z</time></trkpt><trkpt lat="45.3709122" lon="7.6234199"><ele>580.0</ele><time>2026-04-04T16:00:33.953Z</time></trkpt><trkpt lat="45.3707898" lon="7.6231973"><ele>580.0</ele><time>2026-04-04T16:00:34.974Z</time></trkpt><trkpt lat="45.3706783" lon="7.6230041"><ele>580.0</ele><time>2026-04-04T16:00:36.038Z</time></trkpt><trkpt lat="45.3705678" lon="7.6228277"><ele>580.0</ele><time>2026-04-04T16:00:37.042Z</time></trkpt><trkpt lat="45.3704667" lon="7.6226644"><ele>581.5</ele><time>2026-04-04T16:00:37.963Z</time></trkpt><trkpt lat="45.3703678" lon="7.6225041"><ele>583.0</ele><time>2026-04-04T16:00:38.967Z</time></trkpt><trkpt lat="45.3702744" lon="7.622339"><ele>584.5</ele><time>2026-04-04T16:00:39.985Z</time></trkpt><trkpt lat="45.3701938" lon="7.6221709"><ele>586.0</ele><time>2026-04-04T16:00:41.039Z</time></trkpt><trkpt lat="45.3701249" lon="7.6219963"><ele>586.0</ele><time>2026-04-04T16:00:41.955Z</time></trkpt><trkpt lat="45.3700593" lon="7.6218167"><ele>586.0</ele><time>2026-04-04T16:00:42.956Z</time></trkpt><trkpt lat="45.3700001" lon="7.621622"><ele>586.0</ele><time>2026-04-04T16:00:43.955Z</time></trkpt><trkpt lat="45.3699502" lon="7.621421"><ele>586.0</ele><time>2026-04-04T16:00:44.973Z</time></trkpt><trkpt lat="45.3699085" lon="7.6212132"><ele>584.75</ele><time>2026-04-04T16:00:45.956Z</time></trkpt><trkpt lat="45.3698748" lon="7.6210087"><ele>583.5</ele><time>2026-04-04T16:00:47.031Z</time></trkpt><trkpt lat="45.3698445" lon="7.620821"><ele>582.25</ele><time>2026-04-04T16:00:47.955Z</time></trkpt><trkpt lat="45.3698152" lon="7.6206545"><ele>581.0</ele><time>2026-04-04T16:00:48.984Z</time></trkpt><trkpt lat="45.3697772" lon="7.6204995"><ele>581.0</ele><time>2026-04-04T16:00:50.026Z</time></trkpt><trkpt lat="45.3697412" lon="7.6203716"><ele>581.0</ele><time>2026-04-04T16:00:50.967Z</time></trkpt><trkpt lat="45.369718" lon="7.6202648"><ele>581.0</ele><time>2026-04-04T16:00:51.96Z</time></trkpt><trkpt lat="45.3697163" lon="7.6200944"><ele>581.0</ele><time>2026-04-04T16:00:53.959Z</time></trkpt><trkpt lat="45.3697929" lon="7.6199213"><ele>581.0</ele><time>2026-04-04T16:00:55.962Z</time></trkpt><trkpt lat="45.3698346" lon="7.6197888"><ele>580.75</ele><time>2026-04-04T16:00:56.956Z</time></trkpt><trkpt lat="45.369855" lon="7.6196324"><ele>580.5</ele><time>2026-04-04T16:00:57.959Z</time></trkpt><trkpt lat="45.3698564" lon="7.6194379"><ele>580.25</ele><time>2026-04-04T16:00:58.957Z</time></trkpt><trkpt lat="45.3698559" lon="7.6192341"><ele>580.0</ele><time>2026-04-04T16:00:59.959Z</time></trkpt><trkpt lat="45.3698591" lon="7.6190313"><ele>579.75</ele><time>2026-04-04T16:01:01.042Z</time></trkpt><trkpt lat="45.369859" lon="7.6188322"><ele>579.5</ele><time>2026-04-04T16:01:02.038Z</time></trkpt><trkpt lat="45.3698551" lon="7.6186218"><ele>579.25</ele><time>2026-04-04T16:01:02.953Z</time></trkpt><trkpt lat="45.3698546" lon="7.6184125"><ele>579.0</ele><time>2026-04-04T16:01:03.966Z</time></trkpt><trkpt lat="45.3698527" lon="7.6182109"><ele>578.5</ele><time>2026-04-04T16:01:04.951Z</time></trkpt><trkpt lat="45.3698548" lon="7.6180083"><ele>578.0</ele><time>2026-04-04T16:01:05.961Z</time></trkpt><trkpt lat="45.3698518" lon="7.6178158"><ele>577.5</ele><time>2026-04-04T16:01:06.971Z</time></trkpt><trkpt lat="45.3698379" lon="7.6176127"><ele>577.0</ele><time>2026-04-04T16:01:07.959Z</time></trkpt><trkpt lat="45.3698217" lon="7.6174195"><ele>576.25</ele><time>2026-04-04T16:01:08.96Z</time></trkpt><trkpt lat="45.369797" lon="7.6172277"><ele>575.5</ele><time>2026-04-04T16:01:10.03Z</time></trkpt><trkpt lat="45.3697611" lon="7.6170437"><ele>574.75</ele><time>2026-04-04T16:01:11.031Z</time></trkpt><trkpt lat="45.3697063" lon="7.6168746"><ele>574.0</ele><time>2026-04-04T16:01:12.03Z</time></trkpt><trkpt lat="45.3696443" lon="7.6167015"><ele>574.6</ele><time>2026-04-04T16:01:12.961Z</time></trkpt><trkpt lat="45.369578" lon="7.6165425"><ele>575.2</ele><time>2026-04-04T16:01:13.957Z</time></trkpt><trkpt lat="45.3695219" lon="7.6164053"><ele>575.8000000000001</ele><time>2026-04-04T16:01:14.982Z</time></trkpt><trkpt lat="45.3694734" lon="7.6162723"><ele>576.4</ele><time>2026-04-04T16:01:16.03Z</time></trkpt><trkpt lat="45.3694275" lon="7.6161456"><ele>577.0</ele><time>2026-04-04T16:01:16.972Z</time></trkpt><trkpt lat="45.3693892" lon="7.6160356"><ele>577.0</ele><time>2026-04-04T16:01:17.962Z</time></trkpt><trkpt lat="45.3693523" lon="7.615953"><ele>577.0</ele><time>2026-04-04T16:01:18.964Z</time></trkpt><trkpt lat="45.3693045" lon="7.6158926"><ele>577.0</ele><time>2026-04-04T16:01:21.029Z</time></trkpt><trkpt lat="45.3692595" lon="7.6159694"><ele>577.0</ele><time>2026-04-04T16:01:22.964Z</time></trkpt><trkpt lat="45.3692551" lon="7.616147"><ele>577.0</ele><time>2026-04-04T16:01:25.013Z</time></trkpt><trkpt lat="45.3692776" lon="7.6162748"><ele>577.0</ele><time>2026-04-04T16:01:25.948Z</time></trkpt><trkpt lat="45.3693147" lon="7.616423"><ele>579.0</ele><time>2026-04-04T16:01:27.031Z</time></trkpt><trkpt lat="45.369365" lon="7.6165906"><ele>581.0</ele><time>2026-04-04T16:01:27.954Z</time></trkpt><trkpt lat="45.3694351" lon="7.6167738"><ele>583.0</ele><time>2026-04-04T16:01:28.96Z</time></trkpt><trkpt lat="45.3695098" lon="7.6169582"><ele>585.0</ele><time>2026-04-04T16:01:29.951Z</time></trkpt><trkpt lat="45.3695675" lon="7.6171139"><ele>585.8333333333334</ele><time>2026-04-04T16:01:30.949Z</time></trkpt><trkpt lat="45.3696063" lon="7.6172269"><ele>586.6666666666666</ele><time>2026-04-04T16:01:31.954Z</time></trkpt><trkpt lat="45.3696172" lon="7.6173235"><ele>587.5</ele><time>2026-04-04T16:01:32.955Z</time></trkpt><trkpt lat="45.3695764" lon="7.6174444"><ele>588.3333333333333</ele><time>2026-04-04T16:01:34.98Z</time></trkpt><trkpt lat="45.3694932" lon="7.6174411"><ele>589.1666666666666</ele><time>2026-04-04T16:01:36.029Z</time></trkpt><trkpt lat="45.3694372" lon="7.6173794"><ele>590.0</ele><time>2026-04-04T16:01:36.95Z</time></trkpt><trkpt lat="45.369374" lon="7.6172749"><ele>590.0</ele><time>2026-04-04T16:01:37.953Z</time></trkpt><trkpt lat="45.3693051" lon="7.6171566"><ele>590.0</ele><time>2026-04-04T16:01:38.955Z</time></trkpt><trkpt lat="45.3692273" lon="7.6170374"><ele>590.0</ele><time>2026-04-04T16:01:39.955Z</time></trkpt><trkpt lat="45.369139" lon="7.6169042"><ele>590.0</ele><time>2026-04-04T16:01:40.955Z</time></trkpt><trkpt lat="45.3690415" lon="7.6167875"><ele>590.2</ele><time>2026-04-04T16:01:41.951Z</time></trkpt><trkpt lat="45.3689413" lon="7.6166813"><ele>590.4</ele><time>2026-04-04T16:01:42.954Z</time></trkpt><trkpt lat="45.3688456" lon="7.6166078"><ele>590.6</ele><time>2026-04-04T16:01:44.057Z</time></trkpt><trkpt lat="45.3687441" lon="7.6165563"><ele>590.8</ele><time>2026-04-04T16:01:45.029Z</time></trkpt><trkpt lat="45.3686567" lon="7.6165182"><ele>591.0</ele><time>2026-04-04T16:01:46.038Z</time></trkpt><trkpt lat="45.3685633" lon="7.6165178"><ele>591.0</ele><time>2026-04-04T16:01:46.954Z</time></trkpt><trkpt lat="45.3684691" lon="7.6165572"><ele>591.0</ele><time>2026-04-04T16:01:47.952Z</time></trkpt><trkpt lat="45.3683791" lon="7.6165962"><ele>591.0</ele><time>2026-04-04T16:01:48.947Z</time></trkpt><trkpt lat="45.3682901" lon="7.6166399"><ele>591.0</ele><time>2026-04-04T16:01:49.947Z</time></trkpt><trkpt lat="45.3682095" lon="7.6166678"><ele>591.0</ele><time>2026-04-04T16:01:51.029Z</time></trkpt><trkpt lat="45.3681116" lon="7.6166673"><ele>591.0</ele><time>2026-04-04T16:01:52.966Z</time></trkpt><trkpt lat="45.3680487" lon="7.6167106"><ele>591.0</ele><time>2026-04-04T16:02:44.956Z</time></trkpt><trkpt lat="45.3679811" lon="7.61673"><ele>591.0</ele><time>2026-04-04T16:04:42.958Z</time></trkpt><trkpt lat="45.3678656" lon="7.6167753"><ele>591.0</ele><time>2026-04-04T16:04:44.96Z</time></trkpt><trkpt lat="45.3677736" lon="7.6168251"><ele>591.0</ele><time>2026-04-04T16:04:46.96Z</time></trkpt><trkpt lat="45.3676979" lon="7.6169138"><ele>591.5</ele><time>2026-04-04T16:04:48.961Z</time></trkpt><trkpt lat="45.3676316" lon="7.6170154"><ele>592.0</ele><time>2026-04-04T16:04:50.965Z</time></trkpt><trkpt lat="45.3675603" lon="7.617075"><ele>592.5</ele><time>2026-04-04T16:04:52.958Z</time></trkpt><trkpt lat="45.3675059" lon="7.6171249"><ele>593.0</ele><time>2026-04-04T16:04:54.966Z</time></trkpt><trkpt lat="45.3674426" lon="7.6171833"><ele>593.5</ele><time>2026-04-04T16:04:56.962Z</time></trkpt><trkpt lat="45.3673712" lon="7.6172753"><ele>594.0</ele><time>2026-04-04T16:04:58.954Z</time></trkpt><trkpt lat="45.3672968" lon="7.6173506"><ele>594.0</ele><time>2026-04-04T16:05:00.965Z</time></trkpt><trkpt lat="45.3672909" lon="7.617448"><ele>594.0</ele><time>2026-04-04T16:05:03.959Z</time></trkpt><trkpt lat="45.3673522" lon="7.6175074"><ele>594.0</ele><time>2026-04-04T16:06:51.965Z</time></trkpt></trkseg></trk></gpx>